<?xml version="1.0" encoding="UTF-8" standalone="no" ?>
<gpx xmlns="http://www.topografix.com/GPX/1/1" xmlns:xsi="http://www.w3.org/2001/XMLSchema-instance" xsi:schemaLocation="http://www.topografix.com/GPX/1/1 http://www.topografix.com/GPX/1/1/gpx.xsd" version="1.1" creator="VisuGPX - https://www.visugpx.com">
  <metadata>
    <name>148_Circuit 45 km Les Herbiers_Les Herbiers édité par cth85.com</name>
    <desc><![CDATA[Circuit de 70 km passant par:
Les Herbiers
Mesnard la Barotière
Saint Fulgent
Saint André Goule d'Oie
Sainte Florence
Mouchamps
Les Herbiers]]></desc>
  </metadata>
  <trk>
    <name><![CDATA[45_148_cth85.com]]></name>
    <desc><![CDATA[

]]></desc>
    <extensions>
      <line xmlns="http://www.topografix.com/GPX/gpx_style/0/2">
        <color>0000FF</color>
        <width>4</width>
      </line>
    </extensions>
    <trkseg>
      <trkpt lat="46.86381" lon="-1.00562">
        <ele>119.2</ele>
        <time>2010-01-01T02:56:28Z</time>
      </trkpt>
      <trkpt lat="46.86391" lon="-1.00556">
        <ele>119</ele>
        <time>2010-01-01T02:56:30Z</time>
      </trkpt>
      <trkpt lat="46.86406" lon="-1.00557">
        <ele>119.1</ele>
        <time>2010-01-01T02:56:33Z</time>
      </trkpt>
      <trkpt lat="46.86424" lon="-1.0056">
        <ele>118.9</ele>
        <time>2010-01-01T02:56:36Z</time>
      </trkpt>
      <trkpt lat="46.86445" lon="-1.00561">
        <ele>118.2</ele>
        <time>2010-01-01T02:56:40Z</time>
      </trkpt>
      <trkpt lat="46.86449" lon="-1.00561">
        <ele>118</ele>
        <time>2010-01-01T00:25:47.378Z</time>
        <extensions>
          <visugpx:TrkExtension xmlns:visugpx="https://www.visugpx.com/editgpx/">
            <visugpx:node>1</visugpx:node>
            </visugpx:TrkExtension>
        </extensions>
      </trkpt>
      <trkpt lat="46.86449" lon="-1.0056">
        <ele>118</ele>
        <time>2010-01-01T00:00:00Z</time>
        <extensions>
          <visugpx:TrkExtension xmlns:visugpx="https://www.visugpx.com/editgpx/">
            <visugpx:node>2</visugpx:node>
            </visugpx:TrkExtension>
        </extensions>
      </trkpt>
      <trkpt lat="46.86469" lon="-1.00561">
        <ele>117.3</ele>
        <time>2010-01-01T00:00:02.094Z</time>
      </trkpt>
      <trkpt lat="46.86487" lon="-1.00565">
        <ele>117.3</ele>
        <time>2010-01-01T00:00:04Z</time>
      </trkpt>
      <trkpt lat="46.86523" lon="-1.00577">
        <ele>114.8</ele>
        <time>2010-01-01T00:00:10Z</time>
      </trkpt>
      <trkpt lat="46.86541" lon="-1.00588">
        <ele>114.3</ele>
        <time>2010-01-01T00:00:13Z</time>
      </trkpt>
      <trkpt lat="46.86556" lon="-1.00597">
        <ele>114.5</ele>
        <time>2010-01-01T00:00:16Z</time>
      </trkpt>
      <trkpt lat="46.86573" lon="-1.00609">
        <ele>113.7</ele>
        <time>2010-01-01T00:00:19Z</time>
      </trkpt>
      <trkpt lat="46.86595" lon="-1.00621">
        <ele>112.8</ele>
        <time>2010-01-01T00:00:23Z</time>
      </trkpt>
      <trkpt lat="46.86664" lon="-1.00646">
        <ele>111</ele>
        <time>2010-01-01T00:00:35Z</time>
      </trkpt>
      <trkpt lat="46.86708" lon="-1.0066">
        <ele>110</ele>
        <time>2010-01-01T00:00:42Z</time>
      </trkpt>
      <trkpt lat="46.86714" lon="-1.00671">
        <ele>110</ele>
        <time>2010-01-01T00:00:44Z</time>
      </trkpt>
      <trkpt lat="46.86724" lon="-1.00666">
        <ele>110</ele>
        <time>2010-01-01T00:00:46Z</time>
      </trkpt>
      <trkpt lat="46.86766" lon="-1.00652">
        <ele>110</ele>
        <time>2010-01-01T00:00:53Z</time>
      </trkpt>
      <trkpt lat="46.86836" lon="-1.00634">
        <ele>111.2</ele>
        <time>2010-01-01T00:01:05Z</time>
      </trkpt>
      <trkpt lat="46.86844" lon="-1.00634">
        <ele>111.2</ele>
        <time>2010-01-01T00:01:06Z</time>
      </trkpt>
      <trkpt lat="46.86853" lon="-1.00633">
        <ele>111.2</ele>
        <time>2010-01-01T00:01:08Z</time>
      </trkpt>
      <trkpt lat="46.86901" lon="-1.0065">
        <ele>111.1</ele>
        <time>2010-01-01T00:01:16Z</time>
      </trkpt>
      <trkpt lat="46.86948" lon="-1.00668">
        <ele>108.6</ele>
        <time>2010-01-01T00:01:24Z</time>
      </trkpt>
      <trkpt lat="46.86977" lon="-1.00669">
        <ele>105.8</ele>
        <time>2010-01-01T00:01:29Z</time>
      </trkpt>
      <trkpt lat="46.87042" lon="-1.00732">
        <ele>102.8</ele>
        <time>2010-01-01T00:01:42Z</time>
      </trkpt>
      <trkpt lat="46.87045" lon="-1.00747">
        <ele>102.4</ele>
        <time>2010-01-01T00:01:44Z</time>
      </trkpt>
      <trkpt lat="46.87065" lon="-1.00757">
        <ele>102.3</ele>
        <time>2010-01-01T00:01:47Z</time>
      </trkpt>
      <trkpt lat="46.87095" lon="-1.00763">
        <ele>102.5</ele>
        <time>2010-01-01T00:01:52Z</time>
      </trkpt>
      <trkpt lat="46.87098" lon="-1.00765">
        <ele>102.5</ele>
        <time>2010-01-01T00:01:53Z</time>
      </trkpt>
      <trkpt lat="46.87114" lon="-1.00778">
        <ele>103</ele>
        <time>2010-01-01T00:01:56Z</time>
      </trkpt>
      <trkpt lat="46.87189" lon="-1.00716">
        <ele>104.8</ele>
        <time>2010-01-01T00:02:10Z</time>
      </trkpt>
      <trkpt lat="46.87185" lon="-1.00744">
        <ele>105.4</ele>
        <time>2010-01-01T00:02:13Z</time>
      </trkpt>
      <trkpt lat="46.87178" lon="-1.00791">
        <ele>106.2</ele>
        <time>2010-01-01T00:02:19Z</time>
      </trkpt>
      <trkpt lat="46.87179" lon="-1.00806">
        <ele>107</ele>
        <time>2010-01-01T00:02:21Z</time>
      </trkpt>
      <trkpt lat="46.8718" lon="-1.0082">
        <ele>107.5</ele>
        <time>2010-01-01T00:02:22Z</time>
      </trkpt>
      <trkpt lat="46.87195" lon="-1.00879">
        <ele>108.1</ele>
        <time>2010-01-01T00:02:29Z</time>
      </trkpt>
      <trkpt lat="46.87197" lon="-1.00885">
        <ele>108.3</ele>
        <time>2010-01-01T00:02:30Z</time>
      </trkpt>
      <trkpt lat="46.87228" lon="-1.00987">
        <ele>107.2</ele>
        <time>2010-01-01T00:02:43Z</time>
      </trkpt>
      <trkpt lat="46.87232" lon="-1.01003">
        <ele>107</ele>
        <time>2010-01-01T00:02:45Z</time>
      </trkpt>
      <trkpt lat="46.87242" lon="-1.01047">
        <ele>106.7</ele>
        <time>2010-01-01T00:02:50Z</time>
      </trkpt>
      <trkpt lat="46.87262" lon="-1.01127">
        <ele>106.6</ele>
        <time>2010-01-01T00:03:00Z</time>
      </trkpt>
      <trkpt lat="46.87294" lon="-1.01214">
        <ele>107.2</ele>
        <time>2010-01-01T00:03:11Z</time>
      </trkpt>
      <trkpt lat="46.8729" lon="-1.01224">
        <ele>107.1</ele>
        <time>2010-01-01T00:03:12Z</time>
      </trkpt>
      <trkpt lat="46.87285" lon="-1.01239">
        <ele>107.6</ele>
        <time>2010-01-01T00:03:14Z</time>
      </trkpt>
      <trkpt lat="46.87281" lon="-1.01264">
        <ele>108.1</ele>
        <time>2010-01-01T00:03:17Z</time>
      </trkpt>
      <trkpt lat="46.87283" lon="-1.01273">
        <ele>108.2</ele>
        <time>2010-01-01T00:03:18Z</time>
      </trkpt>
      <trkpt lat="46.87296" lon="-1.01281">
        <ele>108.7</ele>
        <time>2010-01-01T00:03:21Z</time>
      </trkpt>
      <trkpt lat="46.87302" lon="-1.01285">
        <ele>108.9</ele>
        <time>2010-01-01T00:03:22Z</time>
      </trkpt>
      <trkpt lat="46.87305" lon="-1.01295">
        <ele>109</ele>
        <time>2010-01-01T00:03:23Z</time>
      </trkpt>
      <trkpt lat="46.87307" lon="-1.01304">
        <ele>109.1</ele>
        <time>2010-01-01T00:03:24Z</time>
      </trkpt>
      <trkpt lat="46.87314" lon="-1.01337">
        <ele>110.4</ele>
        <time>2010-01-01T00:03:28Z</time>
      </trkpt>
      <trkpt lat="46.87322" lon="-1.01382">
        <ele>112.3</ele>
        <time>2010-01-01T00:03:33Z</time>
      </trkpt>
      <trkpt lat="46.87324" lon="-1.01393">
        <ele>112.7</ele>
        <time>2010-01-01T00:03:35Z</time>
      </trkpt>
      <trkpt lat="46.87325" lon="-1.01393">
        <ele>112.7</ele>
        <time>2010-01-01T00:03:35Z</time>
      </trkpt>
      <trkpt lat="46.87327" lon="-1.01398">
        <ele>112.8</ele>
        <time>2010-01-01T00:03:35Z</time>
      </trkpt>
      <trkpt lat="46.87325" lon="-1.01401">
        <ele>112.8</ele>
        <time>2010-01-01T00:03:36Z</time>
      </trkpt>
      <trkpt lat="46.87328" lon="-1.01409">
        <ele>112.9</ele>
        <time>2010-01-01T00:03:37Z</time>
      </trkpt>
      <trkpt lat="46.87335" lon="-1.01449">
        <ele>114</ele>
        <time>2010-01-01T00:03:42Z</time>
      </trkpt>
      <trkpt lat="46.87342" lon="-1.01482">
        <ele>114.2</ele>
        <time>2010-01-01T00:03:46Z</time>
      </trkpt>
      <trkpt lat="46.87328" lon="-1.01492">
        <ele>114</ele>
        <time>2010-01-01T00:03:48Z</time>
      </trkpt>
      <trkpt lat="46.87326" lon="-1.01493">
        <ele>114</ele>
        <time>2010-01-01T00:03:49Z</time>
      </trkpt>
      <trkpt lat="46.87283" lon="-1.0151">
        <ele>113.2</ele>
        <time>2010-01-01T00:03:56Z</time>
      </trkpt>
      <trkpt lat="46.87235" lon="-1.01524">
        <ele>111.5</ele>
        <time>2010-01-01T00:04:04Z</time>
      </trkpt>
      <trkpt lat="46.87207" lon="-1.0153">
        <ele>111</ele>
        <time>2010-01-01T00:04:09Z</time>
      </trkpt>
      <trkpt lat="46.87204" lon="-1.01531">
        <ele>111</ele>
        <time>2010-01-01T00:04:09Z</time>
      </trkpt>
      <trkpt lat="46.87195" lon="-1.01534">
        <ele>111</ele>
        <time>2010-01-01T00:04:11Z</time>
      </trkpt>
      <trkpt lat="46.87153" lon="-1.01536">
        <ele>108.8</ele>
        <time>2010-01-01T00:04:18Z</time>
      </trkpt>
      <trkpt lat="46.87106" lon="-1.01535">
        <ele>106.4</ele>
        <time>2010-01-01T00:04:26Z</time>
      </trkpt>
      <trkpt lat="46.87102" lon="-1.01562">
        <ele>106.3</ele>
        <time>2010-01-01T00:04:29Z</time>
      </trkpt>
      <trkpt lat="46.87084" lon="-1.01655">
        <ele>108</ele>
        <time>2010-01-01T00:04:40Z</time>
      </trkpt>
      <trkpt lat="46.87078" lon="-1.01697">
        <ele>108.8</ele>
        <time>2010-01-01T00:04:45Z</time>
      </trkpt>
      <trkpt lat="46.8708" lon="-1.01698">
        <ele>108.9</ele>
        <time>2010-01-01T00:04:45Z</time>
      </trkpt>
      <trkpt lat="46.87083" lon="-1.01705">
        <ele>109</ele>
        <time>2010-01-01T00:04:46Z</time>
      </trkpt>
      <trkpt lat="46.87083" lon="-1.01708">
        <ele>109</ele>
        <time>2010-01-01T00:04:47Z</time>
      </trkpt>
      <trkpt lat="46.87082" lon="-1.0171">
        <ele>109</ele>
        <time>2010-01-01T00:04:47Z</time>
      </trkpt>
      <trkpt lat="46.87081" lon="-1.01712">
        <ele>108.9</ele>
        <time>2010-01-01T00:04:47Z</time>
      </trkpt>
      <trkpt lat="46.87077" lon="-1.01713">
        <ele>108.8</ele>
        <time>2010-01-01T00:04:48Z</time>
      </trkpt>
      <trkpt lat="46.87075" lon="-1.01712">
        <ele>108.7</ele>
        <time>2010-01-01T00:04:48Z</time>
      </trkpt>
      <trkpt lat="46.87067" lon="-1.01761">
        <ele>109.8</ele>
        <time>2010-01-01T00:04:54Z</time>
      </trkpt>
      <trkpt lat="46.87067" lon="-1.01762">
        <ele>109.8</ele>
        <time>2010-01-01T00:04:54Z</time>
      </trkpt>
      <trkpt lat="46.87033" lon="-1.01959">
        <ele>109.2</ele>
        <time>2010-01-01T00:05:17Z</time>
      </trkpt>
      <trkpt lat="46.87023" lon="-1.02023">
        <ele>108.8</ele>
        <time>2010-01-01T00:05:25Z</time>
      </trkpt>
      <trkpt lat="46.87013" lon="-1.02086">
        <ele>108.4</ele>
        <time>2010-01-01T00:05:32Z</time>
      </trkpt>
      <trkpt lat="46.87009" lon="-1.0212">
        <ele>107.9</ele>
        <time>2010-01-01T00:05:36Z</time>
      </trkpt>
      <trkpt lat="46.87006" lon="-1.02159">
        <ele>107.6</ele>
        <time>2010-01-01T00:05:40Z</time>
      </trkpt>
      <trkpt lat="46.87008" lon="-1.02238">
        <ele>106.4</ele>
        <time>2010-01-01T00:05:49Z</time>
      </trkpt>
      <trkpt lat="46.87011" lon="-1.02265">
        <ele>105.9</ele>
        <time>2010-01-01T00:05:53Z</time>
      </trkpt>
      <trkpt lat="46.87017" lon="-1.02314">
        <ele>105.3</ele>
        <time>2010-01-01T00:05:58Z</time>
      </trkpt>
      <trkpt lat="46.8702" lon="-1.02333">
        <ele>104.7</ele>
        <time>2010-01-01T00:06:00Z</time>
      </trkpt>
      <trkpt lat="46.87031" lon="-1.02398">
        <ele>102.9</ele>
        <time>2010-01-01T00:06:08Z</time>
      </trkpt>
      <trkpt lat="46.87043" lon="-1.02436">
        <ele>102.4</ele>
        <time>2010-01-01T00:06:13Z</time>
      </trkpt>
      <trkpt lat="46.87057" lon="-1.02471">
        <ele>101.2</ele>
        <time>2010-01-01T00:06:17Z</time>
      </trkpt>
      <trkpt lat="46.8707" lon="-1.02503">
        <ele>100.9</ele>
        <time>2010-01-01T00:06:22Z</time>
      </trkpt>
      <trkpt lat="46.87086" lon="-1.02543">
        <ele>99.6</ele>
        <time>2010-01-01T00:06:27Z</time>
      </trkpt>
      <trkpt lat="46.87094" lon="-1.02565">
        <ele>99.5</ele>
        <time>2010-01-01T00:06:30Z</time>
      </trkpt>
      <trkpt lat="46.87103" lon="-1.0259">
        <ele>98.8</ele>
        <time>2010-01-01T00:06:33Z</time>
      </trkpt>
      <trkpt lat="46.87114" lon="-1.02628">
        <ele>98.2</ele>
        <time>2010-01-01T00:06:38Z</time>
      </trkpt>
      <trkpt lat="46.87116" lon="-1.02635">
        <ele>98.4</ele>
        <time>2010-01-01T00:06:39Z</time>
      </trkpt>
      <trkpt lat="46.87133" lon="-1.02668">
        <ele>97.8</ele>
        <time>2010-01-01T00:06:43Z</time>
      </trkpt>
      <trkpt lat="46.87144" lon="-1.02688">
        <ele>98.2</ele>
        <time>2010-01-01T00:06:46Z</time>
      </trkpt>
      <trkpt lat="46.87152" lon="-1.02683">
        <ele>98.5</ele>
        <time>2010-01-01T00:06:48Z</time>
      </trkpt>
      <trkpt lat="46.8716" lon="-1.02683">
        <ele>98.8</ele>
        <time>2010-01-01T00:06:49Z</time>
      </trkpt>
      <trkpt lat="46.87169" lon="-1.02689">
        <ele>99</ele>
        <time>2010-01-01T00:06:51Z</time>
      </trkpt>
      <trkpt lat="46.87175" lon="-1.02698">
        <ele>98.9</ele>
        <time>2010-01-01T00:06:52Z</time>
      </trkpt>
      <trkpt lat="46.87178" lon="-1.0271">
        <ele>98.4</ele>
        <time>2010-01-01T00:06:54Z</time>
      </trkpt>
      <trkpt lat="46.87178" lon="-1.02722">
        <ele>98</ele>
        <time>2010-01-01T00:06:55Z</time>
      </trkpt>
      <trkpt lat="46.87175" lon="-1.02732">
        <ele>97.8</ele>
        <time>2010-01-01T00:06:56Z</time>
      </trkpt>
      <trkpt lat="46.87168" lon="-1.02742">
        <ele>97.3</ele>
        <time>2010-01-01T00:06:58Z</time>
      </trkpt>
      <trkpt lat="46.8716" lon="-1.02748">
        <ele>97.1</ele>
        <time>2010-01-01T00:06:59Z</time>
      </trkpt>
      <trkpt lat="46.87154" lon="-1.02748">
        <ele>97</ele>
        <time>2010-01-01T00:07:00Z</time>
      </trkpt>
      <trkpt lat="46.87153" lon="-1.02764">
        <ele>96.2</ele>
        <time>2010-01-01T00:07:02Z</time>
      </trkpt>
      <trkpt lat="46.87152" lon="-1.02808">
        <ele>96</ele>
        <time>2010-01-01T00:07:07Z</time>
      </trkpt>
      <trkpt lat="46.8715" lon="-1.02876">
        <ele>95.2</ele>
        <time>2010-01-01T00:07:15Z</time>
      </trkpt>
      <trkpt lat="46.8715" lon="-1.02917">
        <ele>95</ele>
        <time>2010-01-01T00:07:20Z</time>
      </trkpt>
      <trkpt lat="46.87156" lon="-1.02991">
        <ele>94.4</ele>
        <time>2010-01-01T00:07:28Z</time>
      </trkpt>
      <trkpt lat="46.87159" lon="-1.0303">
        <ele>93.7</ele>
        <time>2010-01-01T00:07:33Z</time>
      </trkpt>
      <trkpt lat="46.8716" lon="-1.03044">
        <ele>93.8</ele>
        <time>2010-01-01T00:07:34Z</time>
      </trkpt>
      <trkpt lat="46.87164" lon="-1.03081">
        <ele>93.8</ele>
        <time>2010-01-01T00:07:38Z</time>
      </trkpt>
      <trkpt lat="46.8718" lon="-1.03261">
        <ele>91</ele>
        <time>2010-01-01T00:07:59Z</time>
      </trkpt>
      <trkpt lat="46.87181" lon="-1.03298">
        <ele>90.6</ele>
        <time>2010-01-01T00:08:03Z</time>
      </trkpt>
      <trkpt lat="46.87176" lon="-1.03401">
        <ele>90.8</ele>
        <time>2010-01-01T00:08:15Z</time>
      </trkpt>
      <trkpt lat="46.87168" lon="-1.03442">
        <ele>91</ele>
        <time>2010-01-01T00:08:20Z</time>
      </trkpt>
      <trkpt lat="46.87126" lon="-1.03599">
        <ele>91</ele>
        <time>2010-01-01T00:08:39Z</time>
      </trkpt>
      <trkpt lat="46.87119" lon="-1.03635">
        <ele>90.1</ele>
        <time>2010-01-01T00:08:44Z</time>
      </trkpt>
      <trkpt lat="46.87117" lon="-1.03668">
        <ele>90</ele>
        <time>2010-01-01T00:08:47Z</time>
      </trkpt>
      <trkpt lat="46.87124" lon="-1.03761">
        <ele>90</ele>
        <time>2010-01-01T00:08:58Z</time>
      </trkpt>
      <trkpt lat="46.87126" lon="-1.03779">
        <ele>90</ele>
        <time>2010-01-01T00:09:00Z</time>
      </trkpt>
      <trkpt lat="46.87129" lon="-1.03779">
        <ele>90</ele>
        <time>2010-01-01T00:09:01Z</time>
      </trkpt>
      <trkpt lat="46.87135" lon="-1.03783">
        <ele>90.2</ele>
        <time>2010-01-01T00:09:02Z</time>
      </trkpt>
      <trkpt lat="46.8714" lon="-1.03789">
        <ele>90.4</ele>
        <time>2010-01-01T00:09:03Z</time>
      </trkpt>
      <trkpt lat="46.87142" lon="-1.03799">
        <ele>90.8</ele>
        <time>2010-01-01T00:09:04Z</time>
      </trkpt>
      <trkpt lat="46.8714" lon="-1.0381">
        <ele>91</ele>
        <time>2010-01-01T00:09:05Z</time>
      </trkpt>
      <trkpt lat="46.87136" lon="-1.03817">
        <ele>91</ele>
        <time>2010-01-01T00:09:06Z</time>
      </trkpt>
      <trkpt lat="46.87147" lon="-1.03836">
        <ele>91</ele>
        <time>2010-01-01T00:09:09Z</time>
      </trkpt>
      <trkpt lat="46.87161" lon="-1.03861">
        <ele>91</ele>
        <time>2010-01-01T00:09:13Z</time>
      </trkpt>
      <trkpt lat="46.87172" lon="-1.0389">
        <ele>91.8</ele>
        <time>2010-01-01T00:09:17Z</time>
      </trkpt>
      <trkpt lat="46.87181" lon="-1.03921">
        <ele>91.6</ele>
        <time>2010-01-01T00:09:20Z</time>
      </trkpt>
      <trkpt lat="46.87201" lon="-1.04009">
        <ele>93.2</ele>
        <time>2010-01-01T00:09:31Z</time>
      </trkpt>
      <trkpt lat="46.87207" lon="-1.04041">
        <ele>93.6</ele>
        <time>2010-01-01T00:09:35Z</time>
      </trkpt>
      <trkpt lat="46.87213" lon="-1.04106">
        <ele>92.8</ele>
        <time>2010-01-01T00:09:42Z</time>
      </trkpt>
      <trkpt lat="46.87221" lon="-1.04151">
        <ele>92.1</ele>
        <time>2010-01-01T00:09:48Z</time>
      </trkpt>
      <trkpt lat="46.87239" lon="-1.04208">
        <ele>90.4</ele>
        <time>2010-01-01T00:09:55Z</time>
      </trkpt>
      <trkpt lat="46.8725" lon="-1.04236">
        <ele>90</ele>
        <time>2010-01-01T00:09:58Z</time>
      </trkpt>
      <trkpt lat="46.87276" lon="-1.04301">
        <ele>88.8</ele>
        <time>2010-01-01T00:10:07Z</time>
      </trkpt>
      <trkpt lat="46.87362" lon="-1.04503">
        <ele>89</ele>
        <time>2010-01-01T00:10:34Z</time>
      </trkpt>
      <trkpt lat="46.87377" lon="-1.04539">
        <ele>89.2</ele>
        <time>2010-01-01T00:10:39Z</time>
      </trkpt>
      <trkpt lat="46.87468" lon="-1.04757">
        <ele>91.1</ele>
        <time>2010-01-01T00:11:08Z</time>
      </trkpt>
      <trkpt lat="46.87549" lon="-1.04943">
        <ele>88.1</ele>
        <time>2010-01-01T00:11:33Z</time>
      </trkpt>
      <trkpt lat="46.876" lon="-1.05072">
        <ele>87.4</ele>
        <time>2010-01-01T00:11:50Z</time>
      </trkpt>
      <trkpt lat="46.87624" lon="-1.05138">
        <ele>87.1</ele>
        <time>2010-01-01T00:11:59Z</time>
      </trkpt>
      <trkpt lat="46.8763" lon="-1.05157">
        <ele>86.9</ele>
        <time>2010-01-01T00:12:01Z</time>
      </trkpt>
      <trkpt lat="46.87667" lon="-1.05349">
        <ele>88.5</ele>
        <time>2010-01-01T00:12:24Z</time>
      </trkpt>
      <trkpt lat="46.87674" lon="-1.05432">
        <ele>88.3</ele>
        <time>2010-01-01T00:12:33Z</time>
      </trkpt>
      <trkpt lat="46.87662" lon="-1.05516">
        <ele>87.5</ele>
        <time>2010-01-01T00:12:43Z</time>
      </trkpt>
      <trkpt lat="46.87633" lon="-1.05667">
        <ele>86</ele>
        <time>2010-01-01T00:13:01Z</time>
      </trkpt>
      <trkpt lat="46.87603" lon="-1.05837">
        <ele>84.4</ele>
        <time>2010-01-01T00:13:21Z</time>
      </trkpt>
      <trkpt lat="46.87574" lon="-1.06004">
        <ele>86</ele>
        <time>2010-01-01T00:13:41Z</time>
      </trkpt>
      <trkpt lat="46.87514" lon="-1.0634">
        <ele>85.1</ele>
        <time>2010-01-01T00:14:20Z</time>
      </trkpt>
      <trkpt lat="46.87491" lon="-1.06552">
        <ele>87</ele>
        <time>2010-01-01T00:14:45Z</time>
      </trkpt>
      <trkpt lat="46.87491" lon="-1.0658">
        <ele>87</ele>
        <time>2010-01-01T00:14:48Z</time>
      </trkpt>
      <trkpt lat="46.87495" lon="-1.06621">
        <ele>86.8</ele>
        <time>2010-01-01T00:14:53Z</time>
      </trkpt>
      <trkpt lat="46.87534" lon="-1.0688">
        <ele>86.3</ele>
        <time>2010-01-01T00:15:23Z</time>
      </trkpt>
      <trkpt lat="46.87553" lon="-1.07141">
        <ele>85.9</ele>
        <time>2010-01-01T00:15:53Z</time>
      </trkpt>
      <trkpt lat="46.87557" lon="-1.07189">
        <ele>84.9</ele>
        <time>2010-01-01T00:15:58Z</time>
      </trkpt>
      <trkpt lat="46.87563" lon="-1.07296">
        <ele>82</ele>
        <time>2010-01-01T00:16:11Z</time>
      </trkpt>
      <trkpt lat="46.87541" lon="-1.07488">
        <ele>83.1</ele>
        <time>2010-01-01T00:16:33Z</time>
      </trkpt>
      <trkpt lat="46.87526" lon="-1.07604">
        <ele>84.1</ele>
        <time>2010-01-01T00:16:46Z</time>
      </trkpt>
      <trkpt lat="46.87517" lon="-1.07641">
        <ele>84.4</ele>
        <time>2010-01-01T00:16:51Z</time>
      </trkpt>
      <trkpt lat="46.87475" lon="-1.07774">
        <ele>88.8</ele>
        <time>2010-01-01T00:17:07Z</time>
      </trkpt>
      <trkpt lat="46.87406" lon="-1.07983">
        <ele>91.1</ele>
        <time>2010-01-01T00:17:34Z</time>
      </trkpt>
      <trkpt lat="46.87332" lon="-1.08208">
        <ele>95</ele>
        <time>2010-01-01T00:18:02Z</time>
      </trkpt>
      <trkpt lat="46.87278" lon="-1.08372">
        <ele>96</ele>
        <time>2010-01-01T00:18:23Z</time>
      </trkpt>
      <trkpt lat="46.87277" lon="-1.08377">
        <ele>96</ele>
        <time>2010-01-01T00:18:24Z</time>
      </trkpt>
      <trkpt lat="46.87254" lon="-1.08451">
        <ele>96.7</ele>
        <time>2010-01-01T00:18:33Z</time>
      </trkpt>
      <trkpt lat="46.87237" lon="-1.08497">
        <ele>96</ele>
        <time>2010-01-01T00:18:39Z</time>
      </trkpt>
      <trkpt lat="46.87213" lon="-1.08541">
        <ele>96</ele>
        <time>2010-01-01T00:18:45Z</time>
      </trkpt>
      <trkpt lat="46.87185" lon="-1.08577">
        <ele>96</ele>
        <time>2010-01-01T00:18:52Z</time>
      </trkpt>
      <trkpt lat="46.86809" lon="-1.08901">
        <ele>94.9</ele>
        <time>2010-01-01T00:20:04Z</time>
      </trkpt>
      <trkpt lat="46.86694" lon="-1.09003">
        <ele>95</ele>
        <time>2010-01-01T00:20:27Z</time>
      </trkpt>
      <trkpt lat="46.86598" lon="-1.09084">
        <ele>95</ele>
        <time>2010-01-01T00:20:45Z</time>
      </trkpt>
      <trkpt lat="46.86444" lon="-1.09217">
        <ele>89.8</ele>
        <time>2010-01-01T00:21:15Z</time>
      </trkpt>
      <trkpt lat="46.8636" lon="-1.09293">
        <ele>84.9</ele>
        <time>2010-01-01T00:21:32Z</time>
      </trkpt>
      <trkpt lat="46.86342" lon="-1.09316">
        <ele>83.9</ele>
        <time>2010-01-01T00:21:36Z</time>
      </trkpt>
      <trkpt lat="46.86239" lon="-1.09523">
        <ele>80.2</ele>
        <time>2010-01-01T00:22:05Z</time>
      </trkpt>
      <trkpt lat="46.86208" lon="-1.09586">
        <ele>79.4</ele>
        <time>2010-01-01T00:22:14Z</time>
      </trkpt>
      <trkpt lat="46.86193" lon="-1.09616">
        <ele>78.7</ele>
        <time>2010-01-01T00:22:18Z</time>
      </trkpt>
      <trkpt lat="46.86184" lon="-1.09641">
        <ele>77.6</ele>
        <time>2010-01-01T00:22:21Z</time>
      </trkpt>
      <trkpt lat="46.86178" lon="-1.09671">
        <ele>77.1</ele>
        <time>2010-01-01T00:22:25Z</time>
      </trkpt>
      <trkpt lat="46.86177" lon="-1.09696">
        <ele>77.7</ele>
        <time>2010-01-01T00:22:27Z</time>
      </trkpt>
      <trkpt lat="46.86175" lon="-1.09719">
        <ele>78.8</ele>
        <time>2010-01-01T00:22:30Z</time>
      </trkpt>
      <trkpt lat="46.86174" lon="-1.09743">
        <ele>79</ele>
        <time>2010-01-01T00:22:33Z</time>
      </trkpt>
      <trkpt lat="46.8617" lon="-1.09787">
        <ele>81.2</ele>
        <time>2010-01-01T00:22:38Z</time>
      </trkpt>
      <trkpt lat="46.86165" lon="-1.09801">
        <ele>81.9</ele>
        <time>2010-01-01T00:22:40Z</time>
      </trkpt>
      <trkpt lat="46.86161" lon="-1.09811">
        <ele>82.6</ele>
        <time>2010-01-01T00:22:41Z</time>
      </trkpt>
      <trkpt lat="46.86147" lon="-1.0983">
        <ele>83.8</ele>
        <time>2010-01-01T00:22:44Z</time>
      </trkpt>
      <trkpt lat="46.86077" lon="-1.09901">
        <ele>87.6</ele>
        <time>2010-01-01T00:22:58Z</time>
      </trkpt>
      <trkpt lat="46.86054" lon="-1.09931">
        <ele>88.1</ele>
        <time>2010-01-01T00:23:04Z</time>
      </trkpt>
      <trkpt lat="46.86049" lon="-1.09936">
        <ele>88.2</ele>
        <time>2010-01-01T00:23:05Z</time>
      </trkpt>
      <trkpt lat="46.86055" lon="-1.09945">
        <ele>88</ele>
        <time>2010-01-01T00:23:06Z</time>
      </trkpt>
      <trkpt lat="46.86062" lon="-1.09964">
        <ele>88.5</ele>
        <time>2010-01-01T00:23:09Z</time>
      </trkpt>
      <trkpt lat="46.86075" lon="-1.0999">
        <ele>87.9</ele>
        <time>2010-01-01T00:23:12Z</time>
      </trkpt>
      <trkpt lat="46.86087" lon="-1.10009">
        <ele>87</ele>
        <time>2010-01-01T00:23:15Z</time>
      </trkpt>
      <trkpt lat="46.86118" lon="-1.10041">
        <ele>86.8</ele>
        <time>2010-01-01T00:23:21Z</time>
      </trkpt>
      <trkpt lat="46.86136" lon="-1.10054">
        <ele>86.1</ele>
        <time>2010-01-01T00:23:25Z</time>
      </trkpt>
      <trkpt lat="46.86155" lon="-1.10089">
        <ele>86.5</ele>
        <time>2010-01-01T00:23:30Z</time>
      </trkpt>
      <trkpt lat="46.86173" lon="-1.10151">
        <ele>88.1</ele>
        <time>2010-01-01T00:23:38Z</time>
      </trkpt>
      <trkpt lat="46.86239" lon="-1.10325">
        <ele>91.7</ele>
        <time>2010-01-01T00:24:00Z</time>
      </trkpt>
      <trkpt lat="46.86266" lon="-1.10404">
        <ele>93.8</ele>
        <time>2010-01-01T00:24:10Z</time>
      </trkpt>
      <trkpt lat="46.86294" lon="-1.1048">
        <ele>94.6</ele>
        <time>2010-01-01T00:24:20Z</time>
      </trkpt>
      <trkpt lat="46.86314" lon="-1.10535">
        <ele>95</ele>
        <time>2010-01-01T00:24:27Z</time>
      </trkpt>
      <trkpt lat="46.86338" lon="-1.10605">
        <ele>94.8</ele>
        <time>2010-01-01T00:24:36Z</time>
      </trkpt>
      <trkpt lat="46.86345" lon="-1.10629">
        <ele>94.9</ele>
        <time>2010-01-01T00:24:39Z</time>
      </trkpt>
      <trkpt lat="46.86355" lon="-1.10662">
        <ele>95.2</ele>
        <time>2010-01-01T00:24:43Z</time>
      </trkpt>
      <trkpt lat="46.86362" lon="-1.10692">
        <ele>95.9</ele>
        <time>2010-01-01T00:24:47Z</time>
      </trkpt>
      <trkpt lat="46.86379" lon="-1.10787">
        <ele>95.9</ele>
        <time>2010-01-01T00:24:58Z</time>
      </trkpt>
      <trkpt lat="46.86394" lon="-1.10858">
        <ele>96.7</ele>
        <time>2010-01-01T00:25:07Z</time>
      </trkpt>
      <trkpt lat="46.86399" lon="-1.1089">
        <ele>97</ele>
        <time>2010-01-01T00:25:10Z</time>
      </trkpt>
      <trkpt lat="46.86403" lon="-1.10915">
        <ele>97</ele>
        <time>2010-01-01T00:25:13Z</time>
      </trkpt>
      <trkpt lat="46.86405" lon="-1.10928">
        <ele>97</ele>
        <time>2010-01-01T00:25:15Z</time>
      </trkpt>
      <trkpt lat="46.86405" lon="-1.10931">
        <ele>97</ele>
        <time>2010-01-01T00:25:15Z</time>
      </trkpt>
      <trkpt lat="46.86428" lon="-1.11074">
        <ele>97</ele>
        <time>2010-01-01T00:25:32Z</time>
      </trkpt>
      <trkpt lat="46.8643" lon="-1.11085">
        <ele>97</ele>
        <time>2010-01-01T00:25:33Z</time>
      </trkpt>
      <trkpt lat="46.86449" lon="-1.11195">
        <ele>96</ele>
        <time>2010-01-01T00:25:46Z</time>
      </trkpt>
      <trkpt lat="46.86519" lon="-1.11448">
        <ele>90.3</ele>
        <time>2010-01-01T00:26:17Z</time>
      </trkpt>
      <trkpt lat="46.86555" lon="-1.11578">
        <ele>87</ele>
        <time>2010-01-01T00:26:33Z</time>
      </trkpt>
      <trkpt lat="46.86593" lon="-1.11715">
        <ele>82.2</ele>
        <time>2010-01-01T00:26:50Z</time>
      </trkpt>
      <trkpt lat="46.86619" lon="-1.11812">
        <ele>85.9</ele>
        <time>2010-01-01T00:27:02Z</time>
      </trkpt>
      <trkpt lat="46.86626" lon="-1.11848">
        <ele>87</ele>
        <time>2010-01-01T00:27:06Z</time>
      </trkpt>
      <trkpt lat="46.86628" lon="-1.11874">
        <ele>88.1</ele>
        <time>2010-01-01T00:27:09Z</time>
      </trkpt>
      <trkpt lat="46.86628" lon="-1.11883">
        <ele>88.7</ele>
        <time>2010-01-01T00:27:10Z</time>
      </trkpt>
      <trkpt lat="46.86613" lon="-1.1194">
        <ele>90.8</ele>
        <time>2010-01-01T00:27:17Z</time>
      </trkpt>
      <trkpt lat="46.86595" lon="-1.12003">
        <ele>92</ele>
        <time>2010-01-01T00:27:25Z</time>
      </trkpt>
      <trkpt lat="46.86569" lon="-1.1208">
        <ele>93.4</ele>
        <time>2010-01-01T00:27:35Z</time>
      </trkpt>
      <trkpt lat="46.86527" lon="-1.12226">
        <ele>95</ele>
        <time>2010-01-01T00:27:53Z</time>
      </trkpt>
      <trkpt lat="46.86502" lon="-1.12326">
        <ele>96.1</ele>
        <time>2010-01-01T00:28:05Z</time>
      </trkpt>
      <trkpt lat="46.8648" lon="-1.12462">
        <ele>98.2</ele>
        <time>2010-01-01T00:28:21Z</time>
      </trkpt>
      <trkpt lat="46.86444" lon="-1.1269">
        <ele>100</ele>
        <time>2010-01-01T00:28:48Z</time>
      </trkpt>
      <trkpt lat="46.86428" lon="-1.12795">
        <ele>100</ele>
        <time>2010-01-01T00:29:00Z</time>
      </trkpt>
      <trkpt lat="46.86413" lon="-1.12869">
        <ele>100</ele>
        <time>2010-01-01T00:29:09Z</time>
      </trkpt>
      <trkpt lat="46.86344" lon="-1.13112">
        <ele>103</ele>
        <time>2010-01-01T00:29:39Z</time>
      </trkpt>
      <trkpt lat="46.8632" lon="-1.13179">
        <ele>104</ele>
        <time>2010-01-01T00:29:47Z</time>
      </trkpt>
      <trkpt lat="46.86295" lon="-1.13227">
        <ele>104.5</ele>
        <time>2010-01-01T00:29:54Z</time>
      </trkpt>
      <trkpt lat="46.86219" lon="-1.13379">
        <ele>105</ele>
        <time>2010-01-01T00:30:16Z</time>
      </trkpt>
      <trkpt lat="46.86142" lon="-1.13531">
        <ele>105</ele>
        <time>2010-01-01T00:30:37Z</time>
      </trkpt>
      <trkpt lat="46.86142" lon="-1.13532">
        <ele>105</ele>
        <time>2010-01-01T00:30:37Z</time>
      </trkpt>
      <trkpt lat="46.86067" lon="-1.13682">
        <ele>104.8</ele>
        <time>2010-01-01T00:30:59Z</time>
      </trkpt>
      <trkpt lat="46.86005" lon="-1.13805">
        <ele>104</ele>
        <time>2010-01-01T00:31:16Z</time>
      </trkpt>
      <trkpt lat="46.85989" lon="-1.13834">
        <ele>104</ele>
        <time>2010-01-01T00:31:20Z</time>
      </trkpt>
      <trkpt lat="46.85967" lon="-1.13869">
        <ele>105</ele>
        <time>2010-01-01T00:31:26Z</time>
      </trkpt>
      <trkpt lat="46.85949" lon="-1.13893">
        <ele>105</ele>
        <time>2010-01-01T00:31:30Z</time>
      </trkpt>
      <trkpt lat="46.85929" lon="-1.13914">
        <ele>105</ele>
        <time>2010-01-01T00:31:34Z</time>
      </trkpt>
      <trkpt lat="46.85902" lon="-1.13939">
        <ele>105.4</ele>
        <time>2010-01-01T00:31:39Z</time>
      </trkpt>
      <trkpt lat="46.85881" lon="-1.13954">
        <ele>105.1</ele>
        <time>2010-01-01T00:31:43Z</time>
      </trkpt>
      <trkpt lat="46.85815" lon="-1.13993">
        <ele>104.9</ele>
        <time>2010-01-01T00:31:55Z</time>
      </trkpt>
      <trkpt lat="46.85783" lon="-1.14016">
        <ele>105.1</ele>
        <time>2010-01-01T00:32:01Z</time>
      </trkpt>
      <trkpt lat="46.85772" lon="-1.14026">
        <ele>106</ele>
        <time>2010-01-01T00:32:03Z</time>
      </trkpt>
      <trkpt lat="46.85754" lon="-1.14048">
        <ele>106.2</ele>
        <time>2010-01-01T00:32:07Z</time>
      </trkpt>
      <trkpt lat="46.85736" lon="-1.14073">
        <ele>105.5</ele>
        <time>2010-01-01T00:32:11Z</time>
      </trkpt>
      <trkpt lat="46.85728" lon="-1.14086">
        <ele>106.4</ele>
        <time>2010-01-01T00:32:13Z</time>
      </trkpt>
      <trkpt lat="46.8572" lon="-1.14101">
        <ele>106.9</ele>
        <time>2010-01-01T00:32:15Z</time>
      </trkpt>
      <trkpt lat="46.85714" lon="-1.14113">
        <ele>106.6</ele>
        <time>2010-01-01T00:32:17Z</time>
      </trkpt>
      <trkpt lat="46.85699" lon="-1.14153">
        <ele>107.1</ele>
        <time>2010-01-01T00:32:22Z</time>
      </trkpt>
      <trkpt lat="46.85691" lon="-1.14182">
        <ele>107.4</ele>
        <time>2010-01-01T00:32:26Z</time>
      </trkpt>
      <trkpt lat="46.85684" lon="-1.14212">
        <ele>106.4</ele>
        <time>2010-01-01T00:32:29Z</time>
      </trkpt>
      <trkpt lat="46.85678" lon="-1.14253">
        <ele>104.7</ele>
        <time>2010-01-01T00:32:34Z</time>
      </trkpt>
      <trkpt lat="46.85676" lon="-1.14276">
        <ele>104</ele>
        <time>2010-01-01T00:32:37Z</time>
      </trkpt>
      <trkpt lat="46.85668" lon="-1.14333">
        <ele>104.8</ele>
        <time>2010-01-01T00:32:43Z</time>
      </trkpt>
      <trkpt lat="46.85655" lon="-1.14452">
        <ele>102.6</ele>
        <time>2010-01-01T00:32:57Z</time>
      </trkpt>
      <trkpt lat="46.85629" lon="-1.14667">
        <ele>98</ele>
        <time>2010-01-01T00:33:22Z</time>
      </trkpt>
      <trkpt lat="46.85622" lon="-1.14712">
        <ele>97.6</ele>
        <time>2010-01-01T00:33:27Z</time>
      </trkpt>
      <trkpt lat="46.85566" lon="-1.14978">
        <ele>96</ele>
        <time>2010-01-01T00:33:59Z</time>
      </trkpt>
      <trkpt lat="46.85536" lon="-1.15113">
        <ele>95.7</ele>
        <time>2010-01-01T00:34:15Z</time>
      </trkpt>
      <trkpt lat="46.85499" lon="-1.1528">
        <ele>94.9</ele>
        <time>2010-01-01T00:34:35Z</time>
      </trkpt>
      <trkpt lat="46.85474" lon="-1.15396">
        <ele>94</ele>
        <time>2010-01-01T00:34:49Z</time>
      </trkpt>
      <trkpt lat="46.85442" lon="-1.1554">
        <ele>94</ele>
        <time>2010-01-01T00:35:06Z</time>
      </trkpt>
      <trkpt lat="46.85379" lon="-1.15817">
        <ele>97</ele>
        <time>2010-01-01T00:35:40Z</time>
      </trkpt>
      <trkpt lat="46.85368" lon="-1.1587">
        <ele>97</ele>
        <time>2010-01-01T00:35:46Z</time>
      </trkpt>
      <trkpt lat="46.85275" lon="-1.16275">
        <ele>93.9</ele>
        <time>2010-01-01T00:36:35Z</time>
      </trkpt>
      <trkpt lat="46.85258" lon="-1.16352">
        <ele>93.3</ele>
        <time>2010-01-01T00:36:44Z</time>
      </trkpt>
      <trkpt lat="46.85239" lon="-1.16438">
        <ele>92.8</ele>
        <time>2010-01-01T00:36:54Z</time>
      </trkpt>
      <trkpt lat="46.85226" lon="-1.16509">
        <ele>92.8</ele>
        <time>2010-01-01T00:37:03Z</time>
      </trkpt>
      <trkpt lat="46.85221" lon="-1.1653">
        <ele>92.8</ele>
        <time>2010-01-01T00:37:05Z</time>
      </trkpt>
      <trkpt lat="46.85196" lon="-1.16629">
        <ele>89.7</ele>
        <time>2010-01-01T00:37:17Z</time>
      </trkpt>
      <trkpt lat="46.85189" lon="-1.16649">
        <ele>89.5</ele>
        <time>2010-01-01T00:37:20Z</time>
      </trkpt>
      <trkpt lat="46.85183" lon="-1.16664">
        <ele>89.1</ele>
        <time>2010-01-01T00:37:22Z</time>
      </trkpt>
      <trkpt lat="46.85185" lon="-1.16665">
        <ele>89</ele>
        <time>2010-01-01T00:37:22Z</time>
      </trkpt>
      <trkpt lat="46.85192" lon="-1.16671">
        <ele>89</ele>
        <time>2010-01-01T00:37:24Z</time>
      </trkpt>
      <trkpt lat="46.85195" lon="-1.16676">
        <ele>89</ele>
        <time>2010-01-01T00:37:24Z</time>
      </trkpt>
      <trkpt lat="46.85196" lon="-1.16688">
        <ele>89</ele>
        <time>2010-01-01T00:37:26Z</time>
      </trkpt>
      <trkpt lat="46.85196" lon="-1.16691">
        <ele>89</ele>
        <time>2010-01-01T00:37:26Z</time>
      </trkpt>
      <trkpt lat="46.85194" lon="-1.16695">
        <ele>89</ele>
        <time>2010-01-01T00:37:27Z</time>
      </trkpt>
      <trkpt lat="46.85188" lon="-1.16704">
        <ele>88.9</ele>
        <time>2010-01-01T00:37:28Z</time>
      </trkpt>
      <trkpt lat="46.85184" lon="-1.16706">
        <ele>88.8</ele>
        <time>2010-01-01T00:37:29Z</time>
      </trkpt>
      <trkpt lat="46.85177" lon="-1.16704">
        <ele>88.8</ele>
        <time>2010-01-01T00:37:30Z</time>
      </trkpt>
      <trkpt lat="46.85175" lon="-1.16703">
        <ele>88.8</ele>
        <time>2010-01-01T00:37:30Z</time>
      </trkpt>
      <trkpt lat="46.85174" lon="-1.16722">
        <ele>88.3</ele>
        <time>2010-01-01T00:37:32Z</time>
      </trkpt>
      <trkpt lat="46.85172" lon="-1.16735">
        <ele>88.1</ele>
        <time>2010-01-01T00:37:34Z</time>
      </trkpt>
      <trkpt lat="46.85168" lon="-1.16748">
        <ele>88</ele>
        <time>2010-01-01T00:37:36Z</time>
      </trkpt>
      <trkpt lat="46.85151" lon="-1.16794">
        <ele>86.4</ele>
        <time>2010-01-01T00:37:42Z</time>
      </trkpt>
      <trkpt lat="46.85122" lon="-1.16864">
        <ele>84.9</ele>
        <time>2010-01-01T00:37:51Z</time>
      </trkpt>
      <trkpt lat="46.85082" lon="-1.16954">
        <ele>82.7</ele>
        <time>2010-01-01T00:38:03Z</time>
      </trkpt>
      <trkpt lat="46.85066" lon="-1.16996">
        <ele>82.1</ele>
        <time>2010-01-01T00:38:09Z</time>
      </trkpt>
      <trkpt lat="46.85055" lon="-1.1703">
        <ele>80.9</ele>
        <time>2010-01-01T00:38:13Z</time>
      </trkpt>
      <trkpt lat="46.85016" lon="-1.17179">
        <ele>78.1</ele>
        <time>2010-01-01T00:38:31Z</time>
      </trkpt>
      <trkpt lat="46.85004" lon="-1.17239">
        <ele>76.1</ele>
        <time>2010-01-01T00:38:38Z</time>
      </trkpt>
      <trkpt lat="46.85" lon="-1.17268">
        <ele>75.4</ele>
        <time>2010-01-01T00:38:42Z</time>
      </trkpt>
      <trkpt lat="46.85001" lon="-1.17282">
        <ele>75</ele>
        <time>2010-01-01T00:38:43.597Z</time>
      </trkpt>
      <trkpt lat="46.85003" lon="-1.17294">
        <ele>75.1</ele>
        <time>2010-01-01T00:38:45Z</time>
      </trkpt>
      <trkpt lat="46.85002" lon="-1.17299">
        <ele>75.1</ele>
        <time>2010-01-01T00:38:45Z</time>
      </trkpt>
      <trkpt lat="46.85001" lon="-1.17305">
        <ele>75</ele>
        <time>2010-01-01T00:38:46Z</time>
      </trkpt>
      <trkpt lat="46.85013" lon="-1.1734">
        <ele>75</ele>
        <time>2010-01-01T00:38:51Z</time>
      </trkpt>
      <trkpt lat="46.85023" lon="-1.17376">
        <ele>74.6</ele>
        <time>2010-01-01T00:38:55Z</time>
      </trkpt>
      <trkpt lat="46.85031" lon="-1.17398">
        <ele>74</ele>
        <time>2010-01-01T00:38:57Z</time>
      </trkpt>
      <trkpt lat="46.85035" lon="-1.17437">
        <ele>74</ele>
        <time>2010-01-01T00:39:03.888Z</time>
      </trkpt>
      <trkpt lat="46.85034" lon="-1.17477">
        <ele>74.3</ele>
        <time>2010-01-01T00:39:10.880Z</time>
      </trkpt>
      <trkpt lat="46.85035" lon="-1.17512">
        <ele>74.8</ele>
        <time>2010-01-01T00:39:17Z</time>
      </trkpt>
      <trkpt lat="46.85047" lon="-1.17556">
        <ele>75.4</ele>
        <time>2010-01-01T00:39:20Z</time>
      </trkpt>
      <trkpt lat="46.8506" lon="-1.1761">
        <ele>75.2</ele>
        <time>2010-01-01T00:39:21.042Z</time>
      </trkpt>
      <trkpt lat="46.85054" lon="-1.17612">
        <ele>74.9</ele>
        <time>2010-01-01T00:39:21.205Z</time>
      </trkpt>
      <trkpt lat="46.85026" lon="-1.17615">
        <ele>73.9</ele>
        <time>2010-01-01T00:39:21.953Z</time>
      </trkpt>
      <trkpt lat="46.85002" lon="-1.17607">
        <ele>72.3</ele>
        <time>2010-01-01T00:39:22.609Z</time>
      </trkpt>
      <trkpt lat="46.84973" lon="-1.17604">
        <ele>72</ele>
        <time>2010-01-01T00:39:23.384Z</time>
      </trkpt>
      <trkpt lat="46.8495" lon="-1.17601">
        <ele>72.3</ele>
        <time>2010-01-01T00:39:24Z</time>
      </trkpt>
      <trkpt lat="46.84938" lon="-1.17599">
        <ele>72.6</ele>
        <time>2010-01-01T00:39:26Z</time>
      </trkpt>
      <trkpt lat="46.84909" lon="-1.17593">
        <ele>73.3</ele>
        <time>2010-01-01T00:39:31.606Z</time>
      </trkpt>
      <trkpt lat="46.84883" lon="-1.17586">
        <ele>74</ele>
        <time>2010-01-01T00:39:36.666Z</time>
      </trkpt>
      <trkpt lat="46.84855" lon="-1.17564">
        <ele>74</ele>
        <time>2010-01-01T00:39:42.750Z</time>
      </trkpt>
      <trkpt lat="46.84827" lon="-1.17536">
        <ele>73.9</ele>
        <time>2010-01-01T00:39:49.243Z</time>
      </trkpt>
      <trkpt lat="46.84801" lon="-1.1751">
        <ele>73.9</ele>
        <time>2010-01-01T00:39:55.272Z</time>
      </trkpt>
      <trkpt lat="46.84737" lon="-1.17597">
        <ele>69.8</ele>
        <time>2010-01-01T00:40:12Z</time>
      </trkpt>
      <trkpt lat="46.84724" lon="-1.17612">
        <ele>69</ele>
        <time>2010-01-01T00:40:15Z</time>
      </trkpt>
      <trkpt lat="46.84702" lon="-1.17635">
        <ele>68.1</ele>
        <time>2010-01-01T00:40:20Z</time>
      </trkpt>
      <trkpt lat="46.84687" lon="-1.1765">
        <ele>67.8</ele>
        <time>2010-01-01T00:40:23Z</time>
      </trkpt>
      <trkpt lat="46.84674" lon="-1.17661">
        <ele>67.4</ele>
        <time>2010-01-01T00:40:26Z</time>
      </trkpt>
      <trkpt lat="46.84647" lon="-1.17675">
        <ele>65.5</ele>
        <time>2010-01-01T00:40:31Z</time>
      </trkpt>
      <trkpt lat="46.84625" lon="-1.17682">
        <ele>64.1</ele>
        <time>2010-01-01T00:40:34Z</time>
      </trkpt>
      <trkpt lat="46.84616" lon="-1.17683">
        <ele>63.9</ele>
        <time>2010-01-01T00:40:36Z</time>
      </trkpt>
      <trkpt lat="46.84607" lon="-1.17684">
        <ele>63.4</ele>
        <time>2010-01-01T00:40:37Z</time>
      </trkpt>
      <trkpt lat="46.84595" lon="-1.17685">
        <ele>62.5</ele>
        <time>2010-01-01T00:40:39Z</time>
      </trkpt>
      <trkpt lat="46.84575" lon="-1.1769">
        <ele>63.6</ele>
        <time>2010-01-01T00:40:43Z</time>
      </trkpt>
      <trkpt lat="46.84566" lon="-1.17695">
        <ele>65.5</ele>
        <time>2010-01-01T00:40:44Z</time>
      </trkpt>
      <trkpt lat="46.84556" lon="-1.17706">
        <ele>66.9</ele>
        <time>2010-01-01T00:40:46Z</time>
      </trkpt>
      <trkpt lat="46.84548" lon="-1.17716">
        <ele>67.8</ele>
        <time>2010-01-01T00:40:48Z</time>
      </trkpt>
      <trkpt lat="46.84534" lon="-1.17737">
        <ele>69.6</ele>
        <time>2010-01-01T00:40:52Z</time>
      </trkpt>
      <trkpt lat="46.8452" lon="-1.17776">
        <ele>72.2</ele>
        <time>2010-01-01T00:40:57Z</time>
      </trkpt>
      <trkpt lat="46.84515" lon="-1.17789">
        <ele>72.7</ele>
        <time>2010-01-01T00:40:58Z</time>
      </trkpt>
      <trkpt lat="46.84508" lon="-1.1781">
        <ele>73.2</ele>
        <time>2010-01-01T00:41:01Z</time>
      </trkpt>
      <trkpt lat="46.84488" lon="-1.17856">
        <ele>75.8</ele>
        <time>2010-01-01T00:41:07Z</time>
      </trkpt>
      <trkpt lat="46.84476" lon="-1.17883">
        <ele>76.7</ele>
        <time>2010-01-01T00:41:11Z</time>
      </trkpt>
      <trkpt lat="46.84456" lon="-1.17925">
        <ele>78.3</ele>
        <time>2010-01-01T00:41:17Z</time>
      </trkpt>
      <trkpt lat="46.8445" lon="-1.17939">
        <ele>78.8</ele>
        <time>2010-01-01T00:41:19Z</time>
      </trkpt>
      <trkpt lat="46.8444" lon="-1.17959">
        <ele>79.6</ele>
        <time>2010-01-01T00:41:21Z</time>
      </trkpt>
      <trkpt lat="46.84428" lon="-1.17983">
        <ele>80</ele>
        <time>2010-01-01T00:41:25Z</time>
      </trkpt>
      <trkpt lat="46.84412" lon="-1.18007">
        <ele>80</ele>
        <time>2010-01-01T00:41:29Z</time>
      </trkpt>
      <trkpt lat="46.84392" lon="-1.18038">
        <ele>79.6</ele>
        <time>2010-01-01T00:41:33Z</time>
      </trkpt>
      <trkpt lat="46.84385" lon="-1.18047">
        <ele>79.3</ele>
        <time>2010-01-01T00:41:35Z</time>
      </trkpt>
      <trkpt lat="46.84383" lon="-1.1805">
        <ele>79.2</ele>
        <time>2010-01-01T00:41:35Z</time>
      </trkpt>
      <trkpt lat="46.84348" lon="-1.18103">
        <ele>77.5</ele>
        <time>2010-01-01T00:41:44Z</time>
      </trkpt>
      <trkpt lat="46.84323" lon="-1.1814">
        <ele>75.6</ele>
        <time>2010-01-01T00:41:50Z</time>
      </trkpt>
      <trkpt lat="46.8431" lon="-1.18158">
        <ele>75.2</ele>
        <time>2010-01-01T00:41:53Z</time>
      </trkpt>
      <trkpt lat="46.84063" lon="-1.18524">
        <ele>66.5</ele>
        <time>2010-01-01T00:42:51Z</time>
      </trkpt>
      <trkpt lat="46.84048" lon="-1.1855">
        <ele>66.4</ele>
        <time>2010-01-01T00:42:55Z</time>
      </trkpt>
      <trkpt lat="46.84022" lon="-1.186">
        <ele>67.4</ele>
        <time>2010-01-01T00:43:02Z</time>
      </trkpt>
      <trkpt lat="46.84006" lon="-1.18633">
        <ele>68.7</ele>
        <time>2010-01-01T00:43:07Z</time>
      </trkpt>
      <trkpt lat="46.83988" lon="-1.1867">
        <ele>69.9</ele>
        <time>2010-01-01T00:43:12Z</time>
      </trkpt>
      <trkpt lat="46.83964" lon="-1.18707">
        <ele>71.3</ele>
        <time>2010-01-01T00:43:18Z</time>
      </trkpt>
      <trkpt lat="46.83938" lon="-1.18741">
        <ele>71.3</ele>
        <time>2010-01-01T00:43:24Z</time>
      </trkpt>
      <trkpt lat="46.8392" lon="-1.18761">
        <ele>70.7</ele>
        <time>2010-01-01T00:43:28Z</time>
      </trkpt>
      <trkpt lat="46.83912" lon="-1.18768">
        <ele>70.5</ele>
        <time>2010-01-01T00:43:29Z</time>
      </trkpt>
      <trkpt lat="46.83901" lon="-1.18778">
        <ele>70.5</ele>
        <time>2010-01-01T00:43:31Z</time>
      </trkpt>
      <trkpt lat="46.83866" lon="-1.18803">
        <ele>69.9</ele>
        <time>2010-01-01T00:43:38Z</time>
      </trkpt>
      <trkpt lat="46.83863" lon="-1.18806">
        <ele>69.9</ele>
        <time>2010-01-01T00:43:38Z</time>
      </trkpt>
      <trkpt lat="46.83848" lon="-1.18817">
        <ele>70.1</ele>
        <time>2010-01-01T00:43:41Z</time>
      </trkpt>
      <trkpt lat="46.83821" lon="-1.18836">
        <ele>69.9</ele>
        <time>2010-01-01T00:43:46Z</time>
      </trkpt>
      <trkpt lat="46.83807" lon="-1.18848">
        <ele>69.4</ele>
        <time>2010-01-01T00:43:49Z</time>
      </trkpt>
      <trkpt lat="46.8379" lon="-1.18873">
        <ele>68.6</ele>
        <time>2010-01-01T00:43:53Z</time>
      </trkpt>
      <trkpt lat="46.83778" lon="-1.18897">
        <ele>67.7</ele>
        <time>2010-01-01T00:43:56Z</time>
      </trkpt>
      <trkpt lat="46.83768" lon="-1.18917">
        <ele>67</ele>
        <time>2010-01-01T00:43:59Z</time>
      </trkpt>
      <trkpt lat="46.83763" lon="-1.18926">
        <ele>67</ele>
        <time>2010-01-01T00:44:01Z</time>
      </trkpt>
      <trkpt lat="46.83757" lon="-1.18941">
        <ele>67.4</ele>
        <time>2010-01-01T00:44:03Z</time>
      </trkpt>
      <trkpt lat="46.83751" lon="-1.1895">
        <ele>68.1</ele>
        <time>2010-01-01T00:44:04Z</time>
      </trkpt>
      <trkpt lat="46.83745" lon="-1.18958">
        <ele>68.6</ele>
        <time>2010-01-01T00:44:05Z</time>
      </trkpt>
      <trkpt lat="46.83727" lon="-1.18971">
        <ele>70.5</ele>
        <time>2010-01-01T00:44:09Z</time>
      </trkpt>
      <trkpt lat="46.83716" lon="-1.18974">
        <ele>71.5</ele>
        <time>2010-01-01T00:44:11Z</time>
      </trkpt>
      <trkpt lat="46.83682" lon="-1.18973">
        <ele>73.5</ele>
        <time>2010-01-01T00:44:16Z</time>
      </trkpt>
      <trkpt lat="46.83665" lon="-1.18974">
        <ele>74.1</ele>
        <time>2010-01-01T00:44:19Z</time>
      </trkpt>
      <trkpt lat="46.83659" lon="-1.18975">
        <ele>74.4</ele>
        <time>2010-01-01T00:44:20Z</time>
      </trkpt>
      <trkpt lat="46.83637" lon="-1.18983">
        <ele>75.9</ele>
        <time>2010-01-01T00:44:24Z</time>
      </trkpt>
      <trkpt lat="46.83624" lon="-1.1899">
        <ele>76.7</ele>
        <time>2010-01-01T00:44:26Z</time>
      </trkpt>
      <trkpt lat="46.836" lon="-1.1901">
        <ele>78.6</ele>
        <time>2010-01-01T00:44:31Z</time>
      </trkpt>
      <trkpt lat="46.83599" lon="-1.1901">
        <ele>78.6</ele>
        <time>2010-01-01T00:44:31Z</time>
      </trkpt>
      <trkpt lat="46.83597" lon="-1.19012">
        <ele>78.9</ele>
        <time>2010-01-01T00:44:31Z</time>
      </trkpt>
      <trkpt lat="46.83589" lon="-1.19022">
        <ele>79.7</ele>
        <time>2010-01-01T00:44:33Z</time>
      </trkpt>
      <trkpt lat="46.83573" lon="-1.19043">
        <ele>80.7</ele>
        <time>2010-01-01T00:44:37Z</time>
      </trkpt>
      <trkpt lat="46.83567" lon="-1.19055">
        <ele>81</ele>
        <time>2010-01-01T00:44:38Z</time>
      </trkpt>
      <trkpt lat="46.83538" lon="-1.1912">
        <ele>81.3</ele>
        <time>2010-01-01T00:44:47Z</time>
      </trkpt>
      <trkpt lat="46.83513" lon="-1.19159">
        <ele>80.3</ele>
        <time>2010-01-01T00:44:53Z</time>
      </trkpt>
      <trkpt lat="46.8351" lon="-1.19169">
        <ele>79.9</ele>
        <time>2010-01-01T00:44:55Z</time>
      </trkpt>
      <trkpt lat="46.83501" lon="-1.19173">
        <ele>79.8</ele>
        <time>2010-01-01T00:44:56Z</time>
      </trkpt>
      <trkpt lat="46.83453" lon="-1.19193">
        <ele>78.4</ele>
        <time>2010-01-01T00:45:04Z</time>
      </trkpt>
      <trkpt lat="46.83447" lon="-1.19195">
        <ele>78.1</ele>
        <time>2010-01-01T00:45:05Z</time>
      </trkpt>
      <trkpt lat="46.83443" lon="-1.19196">
        <ele>78</ele>
        <time>2010-01-01T00:45:06Z</time>
      </trkpt>
      <trkpt lat="46.83436" lon="-1.19199">
        <ele>78</ele>
        <time>2010-01-01T00:45:07Z</time>
      </trkpt>
      <trkpt lat="46.83425" lon="-1.19201">
        <ele>78</ele>
        <time>2010-01-01T00:45:09Z</time>
      </trkpt>
      <trkpt lat="46.83412" lon="-1.19199">
        <ele>78</ele>
        <time>2010-01-01T00:45:11Z</time>
      </trkpt>
      <trkpt lat="46.83373" lon="-1.19189">
        <ele>78.2</ele>
        <time>2010-01-01T00:45:18Z</time>
      </trkpt>
      <trkpt lat="46.83363" lon="-1.19188">
        <ele>78.2</ele>
        <time>2010-01-01T00:45:20Z</time>
      </trkpt>
      <trkpt lat="46.83353" lon="-1.19192">
        <ele>78.1</ele>
        <time>2010-01-01T00:45:21Z</time>
      </trkpt>
      <trkpt lat="46.8334" lon="-1.19196">
        <ele>78</ele>
        <time>2010-01-01T00:45:24Z</time>
      </trkpt>
      <trkpt lat="46.83332" lon="-1.19197">
        <ele>78</ele>
        <time>2010-01-01T00:45:25Z</time>
      </trkpt>
      <trkpt lat="46.83326" lon="-1.19196">
        <ele>77.7</ele>
        <time>2010-01-01T00:45:26Z</time>
      </trkpt>
      <trkpt lat="46.83278" lon="-1.19173">
        <ele>75.8</ele>
        <time>2010-01-01T00:45:34Z</time>
      </trkpt>
      <trkpt lat="46.83276" lon="-1.19173">
        <ele>75.8</ele>
        <time>2010-01-01T00:45:35Z</time>
      </trkpt>
      <trkpt lat="46.83274" lon="-1.19175">
        <ele>75.7</ele>
        <time>2010-01-01T00:45:35Z</time>
      </trkpt>
      <trkpt lat="46.83239" lon="-1.19211">
        <ele>73.1</ele>
        <time>2010-01-01T00:45:42Z</time>
      </trkpt>
      <trkpt lat="46.83229" lon="-1.19221">
        <ele>73</ele>
        <time>2010-01-01T00:45:44Z</time>
      </trkpt>
      <trkpt lat="46.83216" lon="-1.19232">
        <ele>73.4</ele>
        <time>2010-01-01T00:45:47Z</time>
      </trkpt>
      <trkpt lat="46.83194" lon="-1.19254">
        <ele>75.2</ele>
        <time>2010-01-01T00:45:51Z</time>
      </trkpt>
      <trkpt lat="46.83158" lon="-1.19285">
        <ele>76.8</ele>
        <time>2010-01-01T00:45:58Z</time>
      </trkpt>
      <trkpt lat="46.83155" lon="-1.19289">
        <ele>77.1</ele>
        <time>2010-01-01T00:45:59Z</time>
      </trkpt>
      <trkpt lat="46.83135" lon="-1.19308">
        <ele>78.2</ele>
        <time>2010-01-01T00:46:03Z</time>
      </trkpt>
      <trkpt lat="46.83123" lon="-1.19316">
        <ele>78.9</ele>
        <time>2010-01-01T00:46:05Z</time>
      </trkpt>
      <trkpt lat="46.83104" lon="-1.19327">
        <ele>80.1</ele>
        <time>2010-01-01T00:46:08Z</time>
      </trkpt>
      <trkpt lat="46.83099" lon="-1.19333">
        <ele>80.4</ele>
        <time>2010-01-01T00:46:10Z</time>
      </trkpt>
      <trkpt lat="46.83093" lon="-1.1934">
        <ele>80.7</ele>
        <time>2010-01-01T00:46:11Z</time>
      </trkpt>
      <trkpt lat="46.8309" lon="-1.19343">
        <ele>80.8</ele>
        <time>2010-01-01T00:46:11Z</time>
      </trkpt>
      <trkpt lat="46.83073" lon="-1.19353">
        <ele>81.4</ele>
        <time>2010-01-01T00:46:15Z</time>
      </trkpt>
      <trkpt lat="46.82967" lon="-1.19407">
        <ele>83</ele>
        <time>2010-01-01T00:46:33Z</time>
      </trkpt>
      <trkpt lat="46.82961" lon="-1.1941">
        <ele>83</ele>
        <time>2010-01-01T00:46:34Z</time>
      </trkpt>
      <trkpt lat="46.82942" lon="-1.1942">
        <ele>83.1</ele>
        <time>2010-01-01T00:46:38Z</time>
      </trkpt>
      <trkpt lat="46.82895" lon="-1.19444">
        <ele>83.8</ele>
        <time>2010-01-01T00:46:46Z</time>
      </trkpt>
      <trkpt lat="46.82872" lon="-1.19455">
        <ele>83.9</ele>
        <time>2010-01-01T00:46:50Z</time>
      </trkpt>
      <trkpt lat="46.8286" lon="-1.19458">
        <ele>84</ele>
        <time>2010-01-01T00:46:52Z</time>
      </trkpt>
      <trkpt lat="46.82837" lon="-1.19462">
        <ele>84.3</ele>
        <time>2010-01-01T00:46:56Z</time>
      </trkpt>
      <trkpt lat="46.82818" lon="-1.19462">
        <ele>84.4</ele>
        <time>2010-01-01T00:46:59Z</time>
      </trkpt>
      <trkpt lat="46.82684" lon="-1.19447">
        <ele>85</ele>
        <time>2010-01-01T00:47:21Z</time>
      </trkpt>
      <trkpt lat="46.82658" lon="-1.19447">
        <ele>85</ele>
        <time>2010-01-01T00:47:26Z</time>
      </trkpt>
      <trkpt lat="46.82644" lon="-1.1945">
        <ele>85</ele>
        <time>2010-01-01T00:47:28Z</time>
      </trkpt>
      <trkpt lat="46.82591" lon="-1.19471">
        <ele>85</ele>
        <time>2010-01-01T00:47:37Z</time>
      </trkpt>
      <trkpt lat="46.82437" lon="-1.19544">
        <ele>86</ele>
        <time>2010-01-01T00:48:04Z</time>
      </trkpt>
      <trkpt lat="46.82408" lon="-1.19567">
        <ele>86.1</ele>
        <time>2010-01-01T00:48:10Z</time>
      </trkpt>
      <trkpt lat="46.82365" lon="-1.19613">
        <ele>86.8</ele>
        <time>2010-01-01T00:48:19Z</time>
      </trkpt>
      <trkpt lat="46.82365" lon="-1.19614">
        <ele>86.8</ele>
        <time>2010-01-01T00:48:19Z</time>
      </trkpt>
      <trkpt lat="46.82319" lon="-1.19663">
        <ele>87.5</ele>
        <time>2010-01-01T00:48:28Z</time>
      </trkpt>
      <trkpt lat="46.82296" lon="-1.19683">
        <ele>87.6</ele>
        <time>2010-01-01T00:48:33Z</time>
      </trkpt>
      <trkpt lat="46.82176" lon="-1.19761">
        <ele>89.3</ele>
        <time>2010-01-01T00:48:55Z</time>
      </trkpt>
      <trkpt lat="46.82143" lon="-1.19785">
        <ele>90.4</ele>
        <time>2010-01-01T00:49:01Z</time>
      </trkpt>
      <trkpt lat="46.82102" lon="-1.19825">
        <ele>90.6</ele>
        <time>2010-01-01T00:49:09Z</time>
      </trkpt>
      <trkpt lat="46.81992" lon="-1.19943">
        <ele>92</ele>
        <time>2010-01-01T00:49:32Z</time>
      </trkpt>
      <trkpt lat="46.81956" lon="-1.19983">
        <ele>92.6</ele>
        <time>2010-01-01T00:49:39Z</time>
      </trkpt>
      <trkpt lat="46.81947" lon="-1.19992">
        <ele>92.9</ele>
        <time>2010-01-01T00:49:41Z</time>
      </trkpt>
      <trkpt lat="46.81923" lon="-1.20018">
        <ele>93</ele>
        <time>2010-01-01T00:49:46Z</time>
      </trkpt>
      <trkpt lat="46.81918" lon="-1.20022">
        <ele>93</ele>
        <time>2010-01-01T00:49:47Z</time>
      </trkpt>
      <trkpt lat="46.81905" lon="-1.20036">
        <ele>92.4</ele>
        <time>2010-01-01T00:49:50Z</time>
      </trkpt>
      <trkpt lat="46.81868" lon="-1.20067">
        <ele>92</ele>
        <time>2010-01-01T00:49:57Z</time>
      </trkpt>
      <trkpt lat="46.81843" lon="-1.20083">
        <ele>92</ele>
        <time>2010-01-01T00:50:01Z</time>
      </trkpt>
      <trkpt lat="46.8181" lon="-1.20102">
        <ele>91.2</ele>
        <time>2010-01-01T00:50:07Z</time>
      </trkpt>
      <trkpt lat="46.81789" lon="-1.20108">
        <ele>91</ele>
        <time>2010-01-01T00:50:11Z</time>
      </trkpt>
      <trkpt lat="46.81754" lon="-1.20112">
        <ele>91</ele>
        <time>2010-01-01T00:50:17Z</time>
      </trkpt>
      <trkpt lat="46.8169" lon="-1.20119">
        <ele>91</ele>
        <time>2010-01-01T00:50:28Z</time>
      </trkpt>
      <trkpt lat="46.81532" lon="-1.20137">
        <ele>92</ele>
        <time>2010-01-01T00:50:54Z</time>
      </trkpt>
      <trkpt lat="46.81519" lon="-1.20138">
        <ele>92.3</ele>
        <time>2010-01-01T00:50:56Z</time>
      </trkpt>
      <trkpt lat="46.81458" lon="-1.20144">
        <ele>93.7</ele>
        <time>2010-01-01T00:51:06Z</time>
      </trkpt>
      <trkpt lat="46.81405" lon="-1.2015">
        <ele>95.8</ele>
        <time>2010-01-01T00:51:15Z</time>
      </trkpt>
      <trkpt lat="46.81281" lon="-1.20165">
        <ele>101.9</ele>
        <time>2010-01-01T00:51:36Z</time>
      </trkpt>
      <trkpt lat="46.81282" lon="-1.20169">
        <ele>101.9</ele>
        <time>2010-01-01T00:51:36Z</time>
      </trkpt>
      <trkpt lat="46.81283" lon="-1.20173">
        <ele>102</ele>
        <time>2010-01-01T00:51:37Z</time>
      </trkpt>
      <trkpt lat="46.81282" lon="-1.20169">
        <ele>101.9</ele>
        <time>2010-01-01T00:51:37Z</time>
      </trkpt>
      <trkpt lat="46.81281" lon="-1.20165">
        <ele>101.9</ele>
        <time>2010-01-01T00:51:38Z</time>
      </trkpt>
      <trkpt lat="46.81263" lon="-1.20167">
        <ele>102.5</ele>
        <time>2010-01-01T00:51:41Z</time>
      </trkpt>
      <trkpt lat="46.81245" lon="-1.20169">
        <ele>102.8</ele>
        <time>2010-01-01T00:51:44Z</time>
      </trkpt>
      <trkpt lat="46.81209" lon="-1.20169">
        <ele>102</ele>
        <time>2010-01-01T00:51:50Z</time>
      </trkpt>
      <trkpt lat="46.81191" lon="-1.20167">
        <ele>102</ele>
        <time>2010-01-01T00:51:53Z</time>
      </trkpt>
      <trkpt lat="46.81149" lon="-1.20154">
        <ele>101.5</ele>
        <time>2010-01-01T00:52:00Z</time>
      </trkpt>
      <trkpt lat="46.81117" lon="-1.20141">
        <ele>99.7</ele>
        <time>2010-01-01T00:52:06Z</time>
      </trkpt>
      <trkpt lat="46.8107" lon="-1.20118">
        <ele>100.6</ele>
        <time>2010-01-01T00:52:14Z</time>
      </trkpt>
      <trkpt lat="46.81059" lon="-1.20111">
        <ele>103.4</ele>
        <time>2010-01-01T00:52:16Z</time>
      </trkpt>
      <trkpt lat="46.81039" lon="-1.20103">
        <ele>102.3</ele>
        <time>2010-01-01T00:52:19Z</time>
      </trkpt>
      <trkpt lat="46.81031" lon="-1.201">
        <ele>102.2</ele>
        <time>2010-01-01T00:52:21Z</time>
      </trkpt>
      <trkpt lat="46.81032" lon="-1.20094">
        <ele>102.6</ele>
        <time>2010-01-01T00:52:21Z</time>
      </trkpt>
      <trkpt lat="46.81044" lon="-1.20043">
        <ele>99.7</ele>
        <time>2010-01-01T00:52:28Z</time>
      </trkpt>
      <trkpt lat="46.8105" lon="-1.20021">
        <ele>100.6</ele>
        <time>2010-01-01T00:52:30Z</time>
      </trkpt>
      <trkpt lat="46.81065" lon="-1.19983">
        <ele>100.9</ele>
        <time>2010-01-01T00:52:35Z</time>
      </trkpt>
      <trkpt lat="46.81073" lon="-1.19965">
        <ele>100.6</ele>
        <time>2010-01-01T00:52:38Z</time>
      </trkpt>
      <trkpt lat="46.81091" lon="-1.19934">
        <ele>101</ele>
        <time>2010-01-01T00:52:42Z</time>
      </trkpt>
      <trkpt lat="46.8113" lon="-1.19875">
        <ele>101.7</ele>
        <time>2010-01-01T00:52:52Z</time>
      </trkpt>
      <trkpt lat="46.81146" lon="-1.19847">
        <ele>102</ele>
        <time>2010-01-01T00:52:56Z</time>
      </trkpt>
      <trkpt lat="46.8116" lon="-1.19815">
        <ele>102.8</ele>
        <time>2010-01-01T00:53:00Z</time>
      </trkpt>
      <trkpt lat="46.81171" lon="-1.19778">
        <ele>102.8</ele>
        <time>2010-01-01T00:53:05Z</time>
      </trkpt>
      <trkpt lat="46.81179" lon="-1.19739">
        <ele>103</ele>
        <time>2010-01-01T00:53:10Z</time>
      </trkpt>
      <trkpt lat="46.81182" lon="-1.19685">
        <ele>102.8</ele>
        <time>2010-01-01T00:53:16Z</time>
      </trkpt>
      <trkpt lat="46.81178" lon="-1.19637">
        <ele>102.6</ele>
        <time>2010-01-01T00:53:21Z</time>
      </trkpt>
      <trkpt lat="46.81166" lon="-1.19582">
        <ele>103</ele>
        <time>2010-01-01T00:53:28Z</time>
      </trkpt>
      <trkpt lat="46.81153" lon="-1.19536">
        <ele>103</ele>
        <time>2010-01-01T00:53:34Z</time>
      </trkpt>
      <trkpt lat="46.81145" lon="-1.19508">
        <ele>103.6</ele>
        <time>2010-01-01T00:53:37Z</time>
      </trkpt>
      <trkpt lat="46.81119" lon="-1.19419">
        <ele>103.7</ele>
        <time>2010-01-01T00:53:48Z</time>
      </trkpt>
      <trkpt lat="46.81119" lon="-1.19417">
        <ele>103.7</ele>
        <time>2010-01-01T00:53:48Z</time>
      </trkpt>
      <trkpt lat="46.81097" lon="-1.19341">
        <ele>104</ele>
        <time>2010-01-01T00:53:58Z</time>
      </trkpt>
      <trkpt lat="46.81084" lon="-1.19285">
        <ele>103</ele>
        <time>2010-01-01T00:54:04Z</time>
      </trkpt>
      <trkpt lat="46.81082" lon="-1.19275">
        <ele>103</ele>
        <time>2010-01-01T00:54:06Z</time>
      </trkpt>
      <trkpt lat="46.8107" lon="-1.19213">
        <ele>102.3</ele>
        <time>2010-01-01T00:54:13Z</time>
      </trkpt>
      <trkpt lat="46.81063" lon="-1.19175">
        <ele>102.5</ele>
        <time>2010-01-01T00:54:17Z</time>
      </trkpt>
      <trkpt lat="46.81062" lon="-1.19167">
        <ele>102.5</ele>
        <time>2010-01-01T00:54:18Z</time>
      </trkpt>
      <trkpt lat="46.81055" lon="-1.19126">
        <ele>103</ele>
        <time>2010-01-01T00:54:23Z</time>
      </trkpt>
      <trkpt lat="46.81026" lon="-1.18936">
        <ele>102.8</ele>
        <time>2010-01-01T00:54:45Z</time>
      </trkpt>
      <trkpt lat="46.81015" lon="-1.18885">
        <ele>102.5</ele>
        <time>2010-01-01T00:54:52Z</time>
      </trkpt>
      <trkpt lat="46.80887" lon="-1.18458">
        <ele>104</ele>
        <time>2010-01-01T00:55:45Z</time>
      </trkpt>
      <trkpt lat="46.80872" lon="-1.18411">
        <ele>105</ele>
        <time>2010-01-01T00:55:51Z</time>
      </trkpt>
      <trkpt lat="46.80858" lon="-1.18366">
        <ele>105</ele>
        <time>2010-01-01T00:55:56Z</time>
      </trkpt>
      <trkpt lat="46.8084" lon="-1.18302">
        <ele>105</ele>
        <time>2010-01-01T00:56:04Z</time>
      </trkpt>
      <trkpt lat="46.80775" lon="-1.18">
        <ele>105</ele>
        <time>2010-01-01T00:56:40Z</time>
      </trkpt>
      <trkpt lat="46.80766" lon="-1.1796">
        <ele>105.6</ele>
        <time>2010-01-01T00:56:45Z</time>
      </trkpt>
      <trkpt lat="46.80761" lon="-1.17943">
        <ele>105.4</ele>
        <time>2010-01-01T00:56:47Z</time>
      </trkpt>
      <trkpt lat="46.80757" lon="-1.17933">
        <ele>105.3</ele>
        <time>2010-01-01T00:56:49Z</time>
      </trkpt>
      <trkpt lat="46.80754" lon="-1.17925">
        <ele>105.1</ele>
        <time>2010-01-01T00:56:50Z</time>
      </trkpt>
      <trkpt lat="46.80749" lon="-1.17914">
        <ele>105</ele>
        <time>2010-01-01T00:56:51Z</time>
      </trkpt>
      <trkpt lat="46.80737" lon="-1.17894">
        <ele>105</ele>
        <time>2010-01-01T00:56:54Z</time>
      </trkpt>
      <trkpt lat="46.80677" lon="-1.1782">
        <ele>104.2</ele>
        <time>2010-01-01T00:57:07Z</time>
      </trkpt>
      <trkpt lat="46.8066" lon="-1.17788">
        <ele>103.9</ele>
        <time>2010-01-01T00:57:12Z</time>
      </trkpt>
      <trkpt lat="46.80649" lon="-1.17759">
        <ele>104.2</ele>
        <time>2010-01-01T00:57:16Z</time>
      </trkpt>
      <trkpt lat="46.80594" lon="-1.1759">
        <ele>104.9</ele>
        <time>2010-01-01T00:57:37Z</time>
      </trkpt>
      <trkpt lat="46.80586" lon="-1.17529">
        <ele>105</ele>
        <time>2010-01-01T00:57:44Z</time>
      </trkpt>
      <trkpt lat="46.8058" lon="-1.17449">
        <ele>106</ele>
        <time>2010-01-01T00:57:53Z</time>
      </trkpt>
      <trkpt lat="46.8056" lon="-1.17371">
        <ele>106</ele>
        <time>2010-01-01T00:58:03Z</time>
      </trkpt>
      <trkpt lat="46.8052" lon="-1.17229">
        <ele>106</ele>
        <time>2010-01-01T00:58:20Z</time>
      </trkpt>
      <trkpt lat="46.80462" lon="-1.17004">
        <ele>106</ele>
        <time>2010-01-01T00:58:48Z</time>
      </trkpt>
      <trkpt lat="46.80428" lon="-1.16875">
        <ele>106</ele>
        <time>2010-01-01T00:59:04Z</time>
      </trkpt>
      <trkpt lat="46.80354" lon="-1.16617">
        <ele>106.6</ele>
        <time>2010-01-01T00:59:36Z</time>
      </trkpt>
      <trkpt lat="46.80334" lon="-1.1653">
        <ele>107</ele>
        <time>2010-01-01T00:59:46Z</time>
      </trkpt>
      <trkpt lat="46.80321" lon="-1.16489">
        <ele>107</ele>
        <time>2010-01-01T00:59:51Z</time>
      </trkpt>
      <trkpt lat="46.80318" lon="-1.1648">
        <ele>107</ele>
        <time>2010-01-01T00:59:52Z</time>
      </trkpt>
      <trkpt lat="46.80279" lon="-1.16394">
        <ele>107</ele>
        <time>2010-01-01T01:00:04Z</time>
      </trkpt>
      <trkpt lat="46.80229" lon="-1.16281">
        <ele>107.2</ele>
        <time>2010-01-01T01:00:19Z</time>
      </trkpt>
      <trkpt lat="46.80202" lon="-1.1622">
        <ele>107</ele>
        <time>2010-01-01T01:00:28Z</time>
      </trkpt>
      <trkpt lat="46.80168" lon="-1.16163">
        <ele>106</ele>
        <time>2010-01-01T01:00:36Z</time>
      </trkpt>
      <trkpt lat="46.80155" lon="-1.1614">
        <ele>106</ele>
        <time>2010-01-01T01:00:40Z</time>
      </trkpt>
      <trkpt lat="46.80072" lon="-1.16034">
        <ele>104</ele>
        <time>2010-01-01T01:00:58Z</time>
      </trkpt>
      <trkpt lat="46.80004" lon="-1.15945">
        <ele>103</ele>
        <time>2010-01-01T01:01:13Z</time>
      </trkpt>
      <trkpt lat="46.79945" lon="-1.15842">
        <ele>103</ele>
        <time>2010-01-01T01:01:29Z</time>
      </trkpt>
      <trkpt lat="46.7993" lon="-1.15804">
        <ele>102.9</ele>
        <time>2010-01-01T01:01:34Z</time>
      </trkpt>
      <trkpt lat="46.79898" lon="-1.15722">
        <ele>102</ele>
        <time>2010-01-01T01:01:45Z</time>
      </trkpt>
      <trkpt lat="46.79892" lon="-1.15708">
        <ele>102</ele>
        <time>2010-01-01T01:01:46Z</time>
      </trkpt>
      <trkpt lat="46.79866" lon="-1.15642">
        <ele>102</ele>
        <time>2010-01-01T01:01:55Z</time>
      </trkpt>
      <trkpt lat="46.79855" lon="-1.15612">
        <ele>102</ele>
        <time>2010-01-01T01:01:59Z</time>
      </trkpt>
      <trkpt lat="46.79849" lon="-1.15598">
        <ele>102</ele>
        <time>2010-01-01T01:02:01Z</time>
      </trkpt>
      <trkpt lat="46.79838" lon="-1.15572">
        <ele>101.9</ele>
        <time>2010-01-01T01:02:04Z</time>
      </trkpt>
      <trkpt lat="46.79815" lon="-1.15515">
        <ele>101.8</ele>
        <time>2010-01-01T01:02:12Z</time>
      </trkpt>
      <trkpt lat="46.79803" lon="-1.155">
        <ele>102</ele>
        <time>2010-01-01T01:02:15Z</time>
      </trkpt>
      <trkpt lat="46.79781" lon="-1.15488">
        <ele>101.9</ele>
        <time>2010-01-01T01:02:18Z</time>
      </trkpt>
      <trkpt lat="46.79721" lon="-1.15461">
        <ele>102.6</ele>
        <time>2010-01-01T01:02:29Z</time>
      </trkpt>
      <trkpt lat="46.79746" lon="-1.15365">
        <ele>101</ele>
        <time>2010-01-01T01:02:41Z</time>
      </trkpt>
      <trkpt lat="46.79753" lon="-1.15349">
        <ele>100.5</ele>
        <time>2010-01-01T01:02:43Z</time>
      </trkpt>
      <trkpt lat="46.79758" lon="-1.15331">
        <ele>100</ele>
        <time>2010-01-01T01:02:45Z</time>
      </trkpt>
      <trkpt lat="46.79695" lon="-1.15152">
        <ele>99</ele>
        <time>2010-01-01T01:03:08Z</time>
      </trkpt>
      <trkpt lat="46.79685" lon="-1.15124">
        <ele>99.2</ele>
        <time>2010-01-01T01:03:12Z</time>
      </trkpt>
      <trkpt lat="46.79668" lon="-1.15065">
        <ele>99</ele>
        <time>2010-01-01T01:03:19Z</time>
      </trkpt>
      <trkpt lat="46.79654" lon="-1.15004">
        <ele>98.1</ele>
        <time>2010-01-01T01:03:26Z</time>
      </trkpt>
      <trkpt lat="46.7965" lon="-1.14991">
        <ele>98</ele>
        <time>2010-01-01T01:03:28Z</time>
      </trkpt>
      <trkpt lat="46.79648" lon="-1.14981">
        <ele>98</ele>
        <time>2010-01-01T01:03:29Z</time>
      </trkpt>
      <trkpt lat="46.79647" lon="-1.14974">
        <ele>98</ele>
        <time>2010-01-01T01:03:30Z</time>
      </trkpt>
      <trkpt lat="46.79644" lon="-1.14966">
        <ele>98</ele>
        <time>2010-01-01T01:03:31Z</time>
      </trkpt>
      <trkpt lat="46.79625" lon="-1.14923">
        <ele>98</ele>
        <time>2010-01-01T01:03:37Z</time>
      </trkpt>
      <trkpt lat="46.79602" lon="-1.14864">
        <ele>98.3</ele>
        <time>2010-01-01T01:03:45Z</time>
        <extensions>
          <visugpx:TrkExtension xmlns:visugpx="https://www.visugpx.com/editgpx/">
            <visugpx:node>3</visugpx:node>
            </visugpx:TrkExtension>
        </extensions>
      </trkpt>
      <trkpt lat="46.79599" lon="-1.14859">
        <ele>98.4</ele>
        <time>2010-01-01T01:03:45.783Z</time>
      </trkpt>
      <trkpt lat="46.79559" lon="-1.14807">
        <ele>98.9</ele>
        <time>2010-01-01T01:03:54.994Z</time>
      </trkpt>
      <trkpt lat="46.7953" lon="-1.1477">
        <ele>98.9</ele>
        <time>2010-01-01T01:04:01.617Z</time>
      </trkpt>
      <trkpt lat="46.79524" lon="-1.14759">
        <ele>99.1</ele>
        <time>2010-01-01T01:04:03.273Z</time>
      </trkpt>
      <trkpt lat="46.7952" lon="-1.14747">
        <ele>99.3</ele>
        <time>2010-01-01T01:04:04.844Z</time>
      </trkpt>
      <trkpt lat="46.79516" lon="-1.14734">
        <ele>99.4</ele>
        <time>2010-01-01T01:04:06.521Z</time>
      </trkpt>
      <trkpt lat="46.79497" lon="-1.14598">
        <ele>100.1</ele>
        <time>2010-01-01T01:04:22.852Z</time>
      </trkpt>
      <trkpt lat="46.79487" lon="-1.1455">
        <ele>100.1</ele>
        <time>2010-01-01T01:04:28.755Z</time>
      </trkpt>
      <trkpt lat="46.79485" lon="-1.14544">
        <ele>100.2</ele>
        <time>2010-01-01T01:04:29.540Z</time>
      </trkpt>
      <trkpt lat="46.79475" lon="-1.14506">
        <ele>100.9</ele>
        <time>2010-01-01T01:04:34.328Z</time>
      </trkpt>
      <trkpt lat="46.79459" lon="-1.14451">
        <ele>100.5</ele>
        <time>2010-01-01T01:04:41.356Z</time>
      </trkpt>
      <trkpt lat="46.79449" lon="-1.14416">
        <ele>100.7</ele>
        <time>2010-01-01T01:04:45.816Z</time>
      </trkpt>
      <trkpt lat="46.7944" lon="-1.14375">
        <ele>100</ele>
        <time>2010-01-01T01:04:50.879Z</time>
      </trkpt>
      <trkpt lat="46.79418" lon="-1.14264">
        <ele>98.9</ele>
        <time>2010-01-01T01:05:04.467Z</time>
      </trkpt>
      <trkpt lat="46.79407" lon="-1.14221">
        <ele>98</ele>
        <time>2010-01-01T01:05:09.864Z</time>
      </trkpt>
      <trkpt lat="46.79386" lon="-1.14168">
        <ele>97.1</ele>
        <time>2010-01-01T01:05:17.063Z</time>
        <extensions>
          <visugpx:TrkExtension xmlns:visugpx="https://www.visugpx.com/editgpx/">
            <visugpx:node>4</visugpx:node>
            </visugpx:TrkExtension>
        </extensions>
      </trkpt>
      <trkpt lat="46.79383" lon="-1.14161">
        <ele>97.2</ele>
        <time>2010-01-01T01:05:18.033Z</time>
      </trkpt>
      <trkpt lat="46.79372" lon="-1.14137">
        <ele>97.5</ele>
        <time>2010-01-01T01:05:21.425Z</time>
      </trkpt>
      <trkpt lat="46.79364" lon="-1.14119">
        <ele>97.2</ele>
        <time>2010-01-01T01:05:23.945Z</time>
      </trkpt>
      <trkpt lat="46.79347" lon="-1.14086">
        <ele>96.6</ele>
        <time>2010-01-01T01:05:28.794Z</time>
      </trkpt>
      <trkpt lat="46.79333" lon="-1.14063">
        <ele>96.3</ele>
        <time>2010-01-01T01:05:32.407Z</time>
      </trkpt>
      <trkpt lat="46.79321" lon="-1.14044">
        <ele>96</ele>
        <time>2010-01-01T01:05:35.441Z</time>
      </trkpt>
      <trkpt lat="46.79286" lon="-1.14002">
        <ele>95.8</ele>
        <time>2010-01-01T01:05:43.206Z</time>
      </trkpt>
      <trkpt lat="46.79273" lon="-1.13983">
        <ele>95.7</ele>
        <time>2010-01-01T01:05:46.358Z</time>
      </trkpt>
      <trkpt lat="46.79266" lon="-1.13969">
        <ele>95.8</ele>
        <time>2010-01-01T01:05:48.392Z</time>
      </trkpt>
      <trkpt lat="46.79258" lon="-1.13947">
        <ele>95.8</ele>
        <time>2010-01-01T01:05:51.314Z</time>
      </trkpt>
      <trkpt lat="46.79229" lon="-1.13833">
        <ele>94.7</ele>
        <time>2010-01-01T01:06:05.579Z</time>
      </trkpt>
      <trkpt lat="46.79226" lon="-1.13818">
        <ele>94.4</ele>
        <time>2010-01-01T01:06:07.411Z</time>
      </trkpt>
      <trkpt lat="46.79212" lon="-1.13769">
        <ele>94.6</ele>
        <time>2010-01-01T01:06:13.635Z</time>
      </trkpt>
      <trkpt lat="46.79197" lon="-1.13729">
        <ele>93.5</ele>
        <time>2010-01-01T01:06:18.981Z</time>
      </trkpt>
      <trkpt lat="46.79192" lon="-1.13717">
        <ele>92.9</ele>
        <time>2010-01-01T01:06:20.627Z</time>
      </trkpt>
      <trkpt lat="46.79185" lon="-1.13707">
        <ele>92.8</ele>
        <time>2010-01-01T01:06:22.302Z</time>
      </trkpt>
      <trkpt lat="46.79178" lon="-1.13705">
        <ele>93</ele>
        <time>2010-01-01T01:06:23.522Z</time>
      </trkpt>
      <trkpt lat="46.7917" lon="-1.13703">
        <ele>93.2</ele>
        <time>2010-01-01T01:06:24.910Z</time>
      </trkpt>
      <trkpt lat="46.79166" lon="-1.13699">
        <ele>93.2</ele>
        <time>2010-01-01T01:06:25.739Z</time>
      </trkpt>
      <trkpt lat="46.79177" lon="-1.13682">
        <ele>92.5</ele>
        <time>2010-01-01T01:06:28.477Z</time>
      </trkpt>
      <trkpt lat="46.79191" lon="-1.13661">
        <ele>91.1</ele>
        <time>2010-01-01T01:06:31.907Z</time>
      </trkpt>
      <trkpt lat="46.79213" lon="-1.13637">
        <ele>90</ele>
        <time>2010-01-01T01:06:36.600Z</time>
      </trkpt>
      <trkpt lat="46.79247" lon="-1.13593">
        <ele>88.4</ele>
        <time>2010-01-01T01:06:44.363Z</time>
      </trkpt>
      <trkpt lat="46.79278" lon="-1.13547">
        <ele>87</ele>
        <time>2010-01-01T01:06:51.915Z</time>
        <extensions>
          <visugpx:TrkExtension xmlns:visugpx="https://www.visugpx.com/editgpx/">
            <visugpx:node>5</visugpx:node>
            </visugpx:TrkExtension>
        </extensions>
      </trkpt>
      <trkpt lat="46.79281" lon="-1.13543">
        <ele>87</ele>
        <time>2010-01-01T01:06:52.609Z</time>
      </trkpt>
      <trkpt lat="46.79299" lon="-1.13524">
        <ele>87</ele>
        <time>2010-01-01T01:06:56.403Z</time>
      </trkpt>
      <trkpt lat="46.79329" lon="-1.13505">
        <ele>87.8</ele>
        <time>2010-01-01T01:07:01.989Z</time>
      </trkpt>
      <trkpt lat="46.79365" lon="-1.13494">
        <ele>89.5</ele>
        <time>2010-01-01T01:07:08.272Z</time>
      </trkpt>
      <trkpt lat="46.79399" lon="-1.1348">
        <ele>91</ele>
        <time>2010-01-01T01:07:14.306Z</time>
      </trkpt>
      <trkpt lat="46.79449" lon="-1.13458">
        <ele>92.7</ele>
        <time>2010-01-01T01:07:23.225Z</time>
      </trkpt>
      <trkpt lat="46.79511" lon="-1.13421">
        <ele>94.9</ele>
        <time>2010-01-01T01:07:34.664Z</time>
      </trkpt>
      <trkpt lat="46.79547" lon="-1.13386">
        <ele>96.8</ele>
        <time>2010-01-01T01:07:42.050Z</time>
      </trkpt>
      <trkpt lat="46.79585" lon="-1.13351">
        <ele>99.1</ele>
        <time>2010-01-01T01:07:49.722Z</time>
      </trkpt>
      <trkpt lat="46.79598" lon="-1.13337">
        <ele>99.5</ele>
        <time>2010-01-01T01:07:52.480Z</time>
      </trkpt>
      <trkpt lat="46.79704" lon="-1.1324">
        <ele>105.3</ele>
        <time>2010-01-01T01:08:13.839Z</time>
      </trkpt>
      <trkpt lat="46.79745" lon="-1.13216">
        <ele>106.9</ele>
        <time>2010-01-01T01:08:21.381Z</time>
      </trkpt>
      <trkpt lat="46.79789" lon="-1.13192">
        <ele>107</ele>
        <time>2010-01-01T01:08:29.400Z</time>
      </trkpt>
      <trkpt lat="46.798" lon="-1.13182">
        <ele>107</ele>
        <time>2010-01-01T01:08:31.612Z</time>
      </trkpt>
      <trkpt lat="46.79803" lon="-1.13174">
        <ele>107</ele>
        <time>2010-01-01T01:08:32.678Z</time>
      </trkpt>
      <trkpt lat="46.79802" lon="-1.13159">
        <ele>107</ele>
        <time>2010-01-01T01:08:34.439Z</time>
      </trkpt>
      <trkpt lat="46.79796" lon="-1.13123">
        <ele>107</ele>
        <time>2010-01-01T01:08:38.768Z</time>
      </trkpt>
      <trkpt lat="46.7979" lon="-1.13094">
        <ele>107</ele>
        <time>2010-01-01T01:08:42.307Z</time>
      </trkpt>
      <trkpt lat="46.79778" lon="-1.13028">
        <ele>107</ele>
        <time>2010-01-01T01:08:50.284Z</time>
      </trkpt>
      <trkpt lat="46.79777" lon="-1.13019">
        <ele>107</ele>
        <time>2010-01-01T01:08:51.349Z</time>
      </trkpt>
      <trkpt lat="46.79769" lon="-1.12978">
        <ele>107</ele>
        <time>2010-01-01T01:08:56.328Z</time>
      </trkpt>
      <trkpt lat="46.79756" lon="-1.1291">
        <ele>106.9</ele>
        <time>2010-01-01T01:09:04.573Z</time>
      </trkpt>
      <trkpt lat="46.79754" lon="-1.12899">
        <ele>106.9</ele>
        <time>2010-01-01T01:09:05.902Z</time>
      </trkpt>
      <trkpt lat="46.79758" lon="-1.12878">
        <ele>106.8</ele>
        <time>2010-01-01T01:09:08.447Z</time>
      </trkpt>
      <trkpt lat="46.79764" lon="-1.12858">
        <ele>107</ele>
        <time>2010-01-01T01:09:10.996Z</time>
      </trkpt>
      <trkpt lat="46.79768" lon="-1.12837">
        <ele>107</ele>
        <time>2010-01-01T01:09:13.540Z</time>
      </trkpt>
      <trkpt lat="46.79767" lon="-1.12788">
        <ele>108</ele>
        <time>2010-01-01T01:09:19.261Z</time>
      </trkpt>
      <trkpt lat="46.79759" lon="-1.12734">
        <ele>107.7</ele>
        <time>2010-01-01T01:09:25.708Z</time>
      </trkpt>
      <trkpt lat="46.79712" lon="-1.12448">
        <ele>109</ele>
        <time>2010-01-01T01:10:00.028Z</time>
        <extensions>
          <visugpx:TrkExtension xmlns:visugpx="https://www.visugpx.com/editgpx/">
            <visugpx:node>6</visugpx:node>
            </visugpx:TrkExtension>
        </extensions>
      </trkpt>
      <trkpt lat="46.79696" lon="-1.12351">
        <ele>107.9</ele>
        <time>2010-01-01T01:10:11.670Z</time>
      </trkpt>
      <trkpt lat="46.79688" lon="-1.12308">
        <ele>108.2</ele>
        <time>2010-01-01T01:10:16.869Z</time>
      </trkpt>
      <trkpt lat="46.79664" lon="-1.12159">
        <ele>109</ele>
        <time>2010-01-01T01:10:34.728Z</time>
      </trkpt>
      <trkpt lat="46.79635" lon="-1.11973">
        <ele>108</ele>
        <time>2010-01-01T01:10:56.984Z</time>
      </trkpt>
      <trkpt lat="46.79567" lon="-1.11577">
        <ele>108.6</ele>
        <time>2010-01-01T01:11:44.616Z</time>
      </trkpt>
      <trkpt lat="46.79511" lon="-1.11218">
        <ele>106.5</ele>
        <time>2010-01-01T01:12:27.574Z</time>
      </trkpt>
      <trkpt lat="46.79467" lon="-1.10957">
        <ele>106.2</ele>
        <time>2010-01-01T01:12:58.934Z</time>
      </trkpt>
      <trkpt lat="46.7945" lon="-1.10849">
        <ele>105.6</ele>
        <time>2010-01-01T01:13:11.862Z</time>
      </trkpt>
      <trkpt lat="46.79448" lon="-1.10811">
        <ele>104.9</ele>
        <time>2010-01-01T01:13:16.308Z</time>
      </trkpt>
      <trkpt lat="46.7945" lon="-1.10785">
        <ele>103.9</ele>
        <time>2010-01-01T01:13:19.360Z</time>
      </trkpt>
      <trkpt lat="46.79458" lon="-1.10756">
        <ele>102.2</ele>
        <time>2010-01-01T01:13:23.007Z</time>
      </trkpt>
      <trkpt lat="46.79546" lon="-1.10522">
        <ele>89.8</ele>
        <time>2010-01-01T01:13:54.148Z</time>
      </trkpt>
      <trkpt lat="46.79556" lon="-1.10479">
        <ele>84.8</ele>
        <time>2010-01-01T01:13:59.445Z</time>
      </trkpt>
      <trkpt lat="46.79553" lon="-1.10446">
        <ele>82</ele>
        <time>2010-01-01T01:14:03.327Z</time>
      </trkpt>
      <trkpt lat="46.79545" lon="-1.10422">
        <ele>78.5</ele>
        <time>2010-01-01T01:14:06.439Z</time>
      </trkpt>
      <trkpt lat="46.79541" lon="-1.10409">
        <ele>76.9</ele>
        <time>2010-01-01T01:14:08.100Z</time>
      </trkpt>
      <trkpt lat="46.79517" lon="-1.10368">
        <ele>77.3</ele>
        <time>2010-01-01T01:14:14.386Z</time>
      </trkpt>
      <trkpt lat="46.79501" lon="-1.10354">
        <ele>79.7</ele>
        <time>2010-01-01T01:14:17.560Z</time>
      </trkpt>
      <trkpt lat="46.79479" lon="-1.10352">
        <ele>81.2</ele>
        <time>2010-01-01T01:14:21.311Z</time>
      </trkpt>
      <trkpt lat="46.79454" lon="-1.10356">
        <ele>84.2</ele>
        <time>2010-01-01T01:14:25.590Z</time>
      </trkpt>
      <trkpt lat="46.794" lon="-1.10386">
        <ele>86.4</ele>
        <time>2010-01-01T01:14:35.419Z</time>
      </trkpt>
      <trkpt lat="46.7938" lon="-1.10389">
        <ele>89.3</ele>
        <time>2010-01-01T01:14:38.839Z</time>
      </trkpt>
      <trkpt lat="46.79361" lon="-1.10386">
        <ele>90.5</ele>
        <time>2010-01-01T01:14:42.089Z</time>
      </trkpt>
      <trkpt lat="46.79343" lon="-1.10369">
        <ele>92.8</ele>
        <time>2010-01-01T01:14:45.734Z</time>
      </trkpt>
      <trkpt lat="46.79321" lon="-1.10342">
        <ele>95.2</ele>
        <time>2010-01-01T01:14:50.620Z</time>
      </trkpt>
      <trkpt lat="46.7928" lon="-1.10271">
        <ele>98.9</ele>
        <time>2010-01-01T01:15:01.432Z</time>
      </trkpt>
      <trkpt lat="46.79272" lon="-1.10252">
        <ele>99.2</ele>
        <time>2010-01-01T01:15:04.028Z</time>
        <extensions>
          <visugpx:TrkExtension xmlns:visugpx="https://www.visugpx.com/editgpx/">
            <visugpx:node>7</visugpx:node>
            </visugpx:TrkExtension>
        </extensions>
      </trkpt>
      <trkpt lat="46.79233" lon="-1.10167">
        <ele>100.6</ele>
        <time>2010-01-01T01:15:15.936Z</time>
      </trkpt>
      <trkpt lat="46.79217" lon="-1.10151">
        <ele>101</ele>
        <time>2010-01-01T01:15:19.232Z</time>
      </trkpt>
      <trkpt lat="46.79197" lon="-1.10137">
        <ele>101</ele>
        <time>2010-01-01T01:15:23.001Z</time>
      </trkpt>
      <trkpt lat="46.7919" lon="-1.1013">
        <ele>100.9</ele>
        <time>2010-01-01T01:15:24.442Z</time>
      </trkpt>
      <trkpt lat="46.79189" lon="-1.10128">
        <ele>100.9</ele>
        <time>2010-01-01T01:15:24.730Z</time>
      </trkpt>
      <trkpt lat="46.79174" lon="-1.10096">
        <ele>101.1</ele>
        <time>2010-01-01T01:15:29.239Z</time>
      </trkpt>
      <trkpt lat="46.79165" lon="-1.10069">
        <ele>101.5</ele>
        <time>2010-01-01T01:15:32.730Z</time>
      </trkpt>
      <trkpt lat="46.79155" lon="-1.10034">
        <ele>103.2</ele>
        <time>2010-01-01T01:15:37.138Z</time>
      </trkpt>
      <trkpt lat="46.79131" lon="-1.09935">
        <ele>105</ele>
        <time>2010-01-01T01:15:49.344Z</time>
      </trkpt>
      <trkpt lat="46.79054" lon="-1.09296">
        <ele>106.7</ele>
        <time>2010-01-01T01:17:04.752Z</time>
      </trkpt>
      <trkpt lat="46.79049" lon="-1.09259">
        <ele>106.5</ele>
        <time>2010-01-01T01:17:09.135Z</time>
      </trkpt>
      <trkpt lat="46.79042" lon="-1.09229">
        <ele>107</ele>
        <time>2010-01-01T01:17:12.818Z</time>
      </trkpt>
      <trkpt lat="46.79032" lon="-1.09201">
        <ele>107.7</ele>
        <time>2010-01-01T01:17:16.487Z</time>
      </trkpt>
      <trkpt lat="46.78772" lon="-1.08605">
        <ele>102.2</ele>
        <time>2010-01-01T01:18:38.592Z</time>
      </trkpt>
      <trkpt lat="46.78649" lon="-1.08321">
        <ele>96.7</ele>
        <time>2010-01-01T01:19:17.635Z</time>
      </trkpt>
      <trkpt lat="46.78437" lon="-1.07829">
        <ele>78.8</ele>
        <time>2010-01-01T01:20:25.176Z</time>
      </trkpt>
      <trkpt lat="46.78387" lon="-1.07672">
        <ele>85.2</ele>
        <time>2010-01-01T01:20:45.294Z</time>
      </trkpt>
      <trkpt lat="46.78236" lon="-1.07188">
        <ele>103.1</ele>
        <time>2010-01-01T01:21:47.091Z</time>
      </trkpt>
      <trkpt lat="46.78223" lon="-1.07146">
        <ele>104</ele>
        <time>2010-01-01T01:21:52.446Z</time>
      </trkpt>
      <trkpt lat="46.78223" lon="-1.07106">
        <ele>104.2</ele>
        <time>2010-01-01T01:21:57.093Z</time>
      </trkpt>
      <trkpt lat="46.78217" lon="-1.07104">
        <ele>104.2</ele>
        <time>2010-01-01T01:21:58.137Z</time>
      </trkpt>
      <trkpt lat="46.78212" lon="-1.07098">
        <ele>104.3</ele>
        <time>2010-01-01T01:21:59.234Z</time>
      </trkpt>
      <trkpt lat="46.78209" lon="-1.0709">
        <ele>104.4</ele>
        <time>2010-01-01T01:22:00.292Z</time>
      </trkpt>
      <trkpt lat="46.78207" lon="-1.07081">
        <ele>104.4</ele>
        <time>2010-01-01T01:22:01.389Z</time>
      </trkpt>
      <trkpt lat="46.78208" lon="-1.07071">
        <ele>104.1</ele>
        <time>2010-01-01T01:22:02.560Z</time>
      </trkpt>
      <trkpt lat="46.78211" lon="-1.07062">
        <ele>103.7</ele>
        <time>2010-01-01T01:22:03.719Z</time>
      </trkpt>
      <trkpt lat="46.78202" lon="-1.07052">
        <ele>103.7</ele>
        <time>2010-01-01T01:22:05.631Z</time>
      </trkpt>
      <trkpt lat="46.78191" lon="-1.07032">
        <ele>103.1</ele>
        <time>2010-01-01T01:22:08.600Z</time>
      </trkpt>
      <trkpt lat="46.78185" lon="-1.07009">
        <ele>103</ele>
        <time>2010-01-01T01:22:11.448Z</time>
      </trkpt>
      <trkpt lat="46.78179" lon="-1.06963">
        <ele>102.8</ele>
        <time>2010-01-01T01:22:16.866Z</time>
      </trkpt>
      <trkpt lat="46.78155" lon="-1.06769">
        <ele>97.9</ele>
        <time>2010-01-01T01:22:39.675Z</time>
      </trkpt>
      <trkpt lat="46.78148" lon="-1.06733">
        <ele>97.3</ele>
        <time>2010-01-01T01:22:44.004Z</time>
      </trkpt>
      <trkpt lat="46.78143" lon="-1.06708">
        <ele>96.6</ele>
        <time>2010-01-01T01:22:47.016Z</time>
      </trkpt>
      <trkpt lat="46.78141" lon="-1.06693">
        <ele>96</ele>
        <time>2010-01-01T01:22:48.783Z</time>
      </trkpt>
      <trkpt lat="46.78145" lon="-1.06689">
        <ele>96</ele>
        <time>2010-01-01T01:22:49.601Z</time>
      </trkpt>
      <trkpt lat="46.78175" lon="-1.06628">
        <ele>96.3</ele>
        <time>2010-01-01T01:22:58.278Z</time>
      </trkpt>
      <trkpt lat="46.7818" lon="-1.06618">
        <ele>96.5</ele>
        <time>2010-01-01T01:22:59.708Z</time>
      </trkpt>
      <trkpt lat="46.78193" lon="-1.06592">
        <ele>96.9</ele>
        <time>2010-01-01T01:23:03.425Z</time>
      </trkpt>
      <trkpt lat="46.78207" lon="-1.06559">
        <ele>97.9</ele>
        <time>2010-01-01T01:23:07.907Z</time>
      </trkpt>
      <trkpt lat="46.78226" lon="-1.06514">
        <ele>98.2</ele>
        <time>2010-01-01T01:23:14.010Z</time>
      </trkpt>
      <trkpt lat="46.78236" lon="-1.06484">
        <ele>98.5</ele>
        <time>2010-01-01T01:23:17.861Z</time>
      </trkpt>
      <trkpt lat="46.78252" lon="-1.06435">
        <ele>98.7</ele>
        <time>2010-01-01T01:23:24.126Z</time>
      </trkpt>
      <trkpt lat="46.78267" lon="-1.06381">
        <ele>99</ele>
        <time>2010-01-01T01:23:30.851Z</time>
      </trkpt>
      <trkpt lat="46.7827" lon="-1.06367">
        <ele>99</ele>
        <time>2010-01-01T01:23:32.543Z</time>
      </trkpt>
      <trkpt lat="46.78282" lon="-1.0632">
        <ele>99</ele>
        <time>2010-01-01T01:23:38.328Z</time>
      </trkpt>
      <trkpt lat="46.7829" lon="-1.06271">
        <ele>99.7</ele>
        <time>2010-01-01T01:23:44.137Z</time>
        <extensions>
          <visugpx:TrkExtension xmlns:visugpx="https://www.visugpx.com/editgpx/">
            <visugpx:node>8</visugpx:node>
            </visugpx:TrkExtension>
        </extensions>
      </trkpt>
      <trkpt lat="46.78303" lon="-1.06189">
        <ele>99.9</ele>
        <time>2010-01-01T01:23:53.843Z</time>
      </trkpt>
      <trkpt lat="46.78308" lon="-1.06131">
        <ele>99.2</ele>
        <time>2010-01-01T01:24:00.584Z</time>
      </trkpt>
      <trkpt lat="46.78309" lon="-1.06071">
        <ele>99.1</ele>
        <time>2010-01-01T01:24:07.504Z</time>
      </trkpt>
      <trkpt lat="46.78308" lon="-1.06058">
        <ele>99</ele>
        <time>2010-01-01T01:24:09.012Z</time>
      </trkpt>
      <trkpt lat="46.78314" lon="-1.06052">
        <ele>99</ele>
        <time>2010-01-01T01:24:10.236Z</time>
      </trkpt>
      <trkpt lat="46.78321" lon="-1.06045">
        <ele>99</ele>
        <time>2010-01-01T01:24:11.663Z</time>
      </trkpt>
      <trkpt lat="46.78331" lon="-1.06033">
        <ele>99</ele>
        <time>2010-01-01T01:24:13.840Z</time>
      </trkpt>
      <trkpt lat="46.7834" lon="-1.06021">
        <ele>99.2</ele>
        <time>2010-01-01T01:24:15.889Z</time>
      </trkpt>
      <trkpt lat="46.78371" lon="-1.0598">
        <ele>100.4</ele>
        <time>2010-01-01T01:24:22.920Z</time>
      </trkpt>
      <trkpt lat="46.784" lon="-1.05943">
        <ele>101.4</ele>
        <time>2010-01-01T01:24:29.393Z</time>
      </trkpt>
      <trkpt lat="46.7843" lon="-1.05903">
        <ele>102.5</ele>
        <time>2010-01-01T01:24:36.221Z</time>
      </trkpt>
      <trkpt lat="46.78452" lon="-1.05873">
        <ele>103.4</ele>
        <time>2010-01-01T01:24:41.280Z</time>
      </trkpt>
      <trkpt lat="46.78472" lon="-1.0585">
        <ele>104</ele>
        <time>2010-01-01T01:24:45.558Z</time>
      </trkpt>
      <trkpt lat="46.78489" lon="-1.05835">
        <ele>104.6</ele>
        <time>2010-01-01T01:24:48.895Z</time>
      </trkpt>
      <trkpt lat="46.78535" lon="-1.05808">
        <ele>106.3</ele>
        <time>2010-01-01T01:24:57.224Z</time>
      </trkpt>
      <trkpt lat="46.78542" lon="-1.05804">
        <ele>106.6</ele>
        <time>2010-01-01T01:24:58.486Z</time>
      </trkpt>
      <trkpt lat="46.78608" lon="-1.05769">
        <ele>108.9</ele>
        <time>2010-01-01T01:25:10.274Z</time>
      </trkpt>
      <trkpt lat="46.78655" lon="-1.05744">
        <ele>110.3</ele>
        <time>2010-01-01T01:25:18.671Z</time>
      </trkpt>
      <trkpt lat="46.78694" lon="-1.05725">
        <ele>111</ele>
        <time>2010-01-01T01:25:25.572Z</time>
      </trkpt>
      <trkpt lat="46.78733" lon="-1.05713">
        <ele>112.4</ele>
        <time>2010-01-01T01:25:32.262Z</time>
      </trkpt>
      <trkpt lat="46.78733" lon="-1.05704">
        <ele>112.4</ele>
        <time>2010-01-01T01:25:33.296Z</time>
      </trkpt>
      <trkpt lat="46.78735" lon="-1.05696">
        <ele>112.5</ele>
        <time>2010-01-01T01:25:34.274Z</time>
      </trkpt>
      <trkpt lat="46.78739" lon="-1.05689">
        <ele>112.6</ele>
        <time>2010-01-01T01:25:35.321Z</time>
      </trkpt>
      <trkpt lat="46.78744" lon="-1.05684">
        <ele>112.6</ele>
        <time>2010-01-01T01:25:36.337Z</time>
      </trkpt>
      <trkpt lat="46.7875" lon="-1.05682">
        <ele>112.6</ele>
        <time>2010-01-01T01:25:37.368Z</time>
      </trkpt>
      <trkpt lat="46.78756" lon="-1.05683">
        <ele>112.3</ele>
        <time>2010-01-01T01:25:38.379Z</time>
      </trkpt>
      <trkpt lat="46.78762" lon="-1.05687">
        <ele>112.1</ele>
        <time>2010-01-01T01:25:39.483Z</time>
      </trkpt>
      <trkpt lat="46.78766" lon="-1.05694">
        <ele>111.9</ele>
        <time>2010-01-01T01:25:40.527Z</time>
      </trkpt>
      <trkpt lat="46.78769" lon="-1.05702">
        <ele>111.6</ele>
        <time>2010-01-01T01:25:41.571Z</time>
      </trkpt>
      <trkpt lat="46.7879" lon="-1.05695">
        <ele>110.6</ele>
        <time>2010-01-01T01:25:45.171Z</time>
      </trkpt>
      <trkpt lat="46.78853" lon="-1.0567">
        <ele>107.6</ele>
        <time>2010-01-01T01:25:56.081Z</time>
      </trkpt>
      <trkpt lat="46.78879" lon="-1.05654">
        <ele>105.9</ele>
        <time>2010-01-01T01:26:00.795Z</time>
      </trkpt>
      <trkpt lat="46.78911" lon="-1.05623">
        <ele>104.3</ele>
        <time>2010-01-01T01:26:07.210Z</time>
      </trkpt>
      <trkpt lat="46.78929" lon="-1.05601">
        <ele>104</ele>
        <time>2010-01-01T01:26:11.131Z</time>
      </trkpt>
      <trkpt lat="46.78945" lon="-1.05575">
        <ele>103.7</ele>
        <time>2010-01-01T01:26:15.129Z</time>
      </trkpt>
      <trkpt lat="46.79046" lon="-1.0537">
        <ele>101</ele>
        <time>2010-01-01T01:26:44.012Z</time>
        <extensions>
          <visugpx:TrkExtension xmlns:visugpx="https://www.visugpx.com/editgpx/">
            <visugpx:node>9</visugpx:node>
            </visugpx:TrkExtension>
        </extensions>
      </trkpt>
      <trkpt lat="46.79065" lon="-1.05332">
        <ele>100.7</ele>
        <time>2010-01-01T01:26:49.393Z</time>
      </trkpt>
      <trkpt lat="46.79077" lon="-1.05309">
        <ele>101.1</ele>
        <time>2010-01-01T01:26:52.699Z</time>
      </trkpt>
      <trkpt lat="46.79087" lon="-1.05295">
        <ele>100.9</ele>
        <time>2010-01-01T01:26:55.012Z</time>
      </trkpt>
      <trkpt lat="46.7918" lon="-1.05188">
        <ele>103.1</ele>
        <time>2010-01-01T01:27:14.780Z</time>
      </trkpt>
      <trkpt lat="46.79347" lon="-1.0499">
        <ele>104.3</ele>
        <time>2010-01-01T01:27:50.695Z</time>
      </trkpt>
      <trkpt lat="46.794" lon="-1.04937">
        <ele>104</ele>
        <time>2010-01-01T01:28:01.419Z</time>
      </trkpt>
      <trkpt lat="46.79486" lon="-1.04864">
        <ele>102.5</ele>
        <time>2010-01-01T01:28:18.026Z</time>
      </trkpt>
      <trkpt lat="46.79546" lon="-1.04824">
        <ele>102.3</ele>
        <time>2010-01-01T01:28:29.037Z</time>
      </trkpt>
      <trkpt lat="46.79711" lon="-1.04717">
        <ele>103</ele>
        <time>2010-01-01T01:28:59.176Z</time>
      </trkpt>
      <trkpt lat="46.79755" lon="-1.04692">
        <ele>102.9</ele>
        <time>2010-01-01T01:29:07.057Z</time>
      </trkpt>
      <trkpt lat="46.79783" lon="-1.04678">
        <ele>103</ele>
        <time>2010-01-01T01:29:11.997Z</time>
      </trkpt>
      <trkpt lat="46.7995" lon="-1.04621">
        <ele>105.2</ele>
        <time>2010-01-01T01:29:40.623Z</time>
      </trkpt>
      <trkpt lat="46.79972" lon="-1.04612">
        <ele>106</ele>
        <time>2010-01-01T01:29:44.436Z</time>
      </trkpt>
      <trkpt lat="46.80002" lon="-1.0459">
        <ele>106.3</ele>
        <time>2010-01-01T01:29:50.038Z</time>
      </trkpt>
      <trkpt lat="46.80016" lon="-1.04575">
        <ele>106.6</ele>
        <time>2010-01-01T01:29:52.935Z</time>
      </trkpt>
      <trkpt lat="46.8003" lon="-1.04557">
        <ele>107</ele>
        <time>2010-01-01T01:29:56.046Z</time>
      </trkpt>
      <trkpt lat="46.80052" lon="-1.04519">
        <ele>106.9</ele>
        <time>2010-01-01T01:30:01.728Z</time>
      </trkpt>
      <trkpt lat="46.80156" lon="-1.04315">
        <ele>106.6</ele>
        <time>2010-01-01T01:30:30.767Z</time>
      </trkpt>
      <trkpt lat="46.8017" lon="-1.04284">
        <ele>106.3</ele>
        <time>2010-01-01T01:30:35.006Z</time>
      </trkpt>
      <trkpt lat="46.80184" lon="-1.04252">
        <ele>106.6</ele>
        <time>2010-01-01T01:30:39.340Z</time>
      </trkpt>
      <trkpt lat="46.80229" lon="-1.04114">
        <ele>107.2</ele>
        <time>2010-01-01T01:30:56.784Z</time>
      </trkpt>
      <trkpt lat="46.80242" lon="-1.04071">
        <ele>107.7</ele>
        <time>2010-01-01T01:31:02.148Z</time>
      </trkpt>
      <trkpt lat="46.80379" lon="-1.03629">
        <ele>110.6</ele>
        <time>2010-01-01T01:31:57.513Z</time>
      </trkpt>
      <trkpt lat="46.80407" lon="-1.03538">
        <ele>111</ele>
        <time>2010-01-01T01:32:08.897Z</time>
      </trkpt>
      <trkpt lat="46.80433" lon="-1.03468">
        <ele>111</ele>
        <time>2010-01-01T01:32:17.984Z</time>
      </trkpt>
      <trkpt lat="46.80627" lon="-1.03064">
        <ele>111.3</ele>
        <time>2010-01-01T01:33:14.290Z</time>
      </trkpt>
      <trkpt lat="46.80675" lon="-1.02965">
        <ele>112.2</ele>
        <time>2010-01-01T01:33:28.131Z</time>
      </trkpt>
      <trkpt lat="46.80843" lon="-1.0264">
        <ele>115</ele>
        <time>2010-01-01T01:34:14.593Z</time>
      </trkpt>
      <trkpt lat="46.80849" lon="-1.02626">
        <ele>115</ele>
        <time>2010-01-01T01:34:16.477Z</time>
      </trkpt>
      <trkpt lat="46.80883" lon="-1.02535">
        <ele>115.2</ele>
        <time>2010-01-01T01:34:28.301Z</time>
      </trkpt>
      <trkpt lat="46.80947" lon="-1.0235">
        <ele>117</ele>
        <time>2010-01-01T01:34:51.941Z</time>
      </trkpt>
      <trkpt lat="46.80971" lon="-1.02286">
        <ele>117</ele>
        <time>2010-01-01T01:35:00.263Z</time>
      </trkpt>
      <trkpt lat="46.80997" lon="-1.02233">
        <ele>118</ele>
        <time>2010-01-01T01:35:07.699Z</time>
      </trkpt>
      <trkpt lat="46.81054" lon="-1.02117">
        <ele>118</ele>
        <time>2010-01-01T01:35:23.983Z</time>
      </trkpt>
      <trkpt lat="46.81093" lon="-1.02041">
        <ele>118.7</ele>
        <time>2010-01-01T01:35:34.814Z</time>
      </trkpt>
      <trkpt lat="46.81107" lon="-1.02017">
        <ele>118.9</ele>
        <time>2010-01-01T01:35:38.409Z</time>
      </trkpt>
      <trkpt lat="46.81117" lon="-1.02004">
        <ele>119</ele>
        <time>2010-01-01T01:35:40.638Z</time>
      </trkpt>
      <trkpt lat="46.81142" lon="-1.01981">
        <ele>119</ele>
        <time>2010-01-01T01:35:45.557Z</time>
      </trkpt>
      <trkpt lat="46.81165" lon="-1.0197">
        <ele>119.1</ele>
        <time>2010-01-01T01:35:49.586Z</time>
      </trkpt>
      <trkpt lat="46.81176" lon="-1.01966">
        <ele>119.5</ele>
        <time>2010-01-01T01:35:51.473Z</time>
      </trkpt>
      <trkpt lat="46.81316" lon="-1.01943">
        <ele>119.6</ele>
        <time>2010-01-01T01:36:14.925Z</time>
      </trkpt>
      <trkpt lat="46.81349" lon="-1.01942">
        <ele>119</ele>
        <time>2010-01-01T01:36:20.419Z</time>
      </trkpt>
      <trkpt lat="46.81366" lon="-1.01945">
        <ele>118.8</ele>
        <time>2010-01-01T01:36:23.269Z</time>
      </trkpt>
      <trkpt lat="46.81433" lon="-1.0197">
        <ele>118</ele>
        <time>2010-01-01T01:36:34.778Z</time>
        <extensions>
          <visugpx:TrkExtension xmlns:visugpx="https://www.visugpx.com/editgpx/">
            <visugpx:node>10</visugpx:node>
            </visugpx:TrkExtension>
        </extensions>
      </trkpt>
      <trkpt lat="46.81453" lon="-1.01977">
        <ele>117.7</ele>
        <time>2010-01-01T01:36:38.200Z</time>
      </trkpt>
      <trkpt lat="46.8147" lon="-1.01978">
        <ele>117.3</ele>
        <time>2010-01-01T01:36:41.030Z</time>
      </trkpt>
      <trkpt lat="46.81483" lon="-1.01977">
        <ele>117.1</ele>
        <time>2010-01-01T01:36:43.195Z</time>
      </trkpt>
      <trkpt lat="46.81506" lon="-1.01967">
        <ele>117</ele>
        <time>2010-01-01T01:36:47.185Z</time>
      </trkpt>
      <trkpt lat="46.81539" lon="-1.01936">
        <ele>116.9</ele>
        <time>2010-01-01T01:36:53.708Z</time>
      </trkpt>
      <trkpt lat="46.81719" lon="-1.0174">
        <ele>116</ele>
        <time>2010-01-01T01:37:31.032Z</time>
      </trkpt>
      <trkpt lat="46.81783" lon="-1.01677">
        <ele>116</ele>
        <time>2010-01-01T01:37:43.862Z</time>
      </trkpt>
      <trkpt lat="46.81955" lon="-1.01557">
        <ele>118</ele>
        <time>2010-01-01T01:38:15.551Z</time>
      </trkpt>
      <trkpt lat="46.82173" lon="-1.01402">
        <ele>121</ele>
        <time>2010-01-01T01:38:55.858Z</time>
      </trkpt>
      <trkpt lat="46.82207" lon="-1.01384">
        <ele>121.1</ele>
        <time>2010-01-01T01:39:01.870Z</time>
      </trkpt>
      <trkpt lat="46.82369" lon="-1.01314">
        <ele>121.7</ele>
        <time>2010-01-01T01:39:29.955Z</time>
      </trkpt>
      <trkpt lat="46.82601" lon="-1.01213">
        <ele>119.9</ele>
        <time>2010-01-01T01:40:10.199Z</time>
      </trkpt>
      <trkpt lat="46.82632" lon="-1.01197">
        <ele>120.1</ele>
        <time>2010-01-01T01:40:15.664Z</time>
      </trkpt>
      <trkpt lat="46.8266" lon="-1.0117">
        <ele>119.1</ele>
        <time>2010-01-01T01:40:21.240Z</time>
      </trkpt>
      <trkpt lat="46.82739" lon="-1.01078">
        <ele>118.4</ele>
        <time>2010-01-01T01:40:38.030Z</time>
      </trkpt>
      <trkpt lat="46.82859" lon="-1.00936">
        <ele>121.3</ele>
        <time>2010-01-01T01:41:03.694Z</time>
      </trkpt>
      <trkpt lat="46.82874" lon="-1.00913">
        <ele>122</ele>
        <time>2010-01-01T01:41:07.307Z</time>
      </trkpt>
      <trkpt lat="46.82898" lon="-1.00868">
        <ele>122.3</ele>
        <time>2010-01-01T01:41:13.794Z</time>
      </trkpt>
      <trkpt lat="46.82972" lon="-1.00722">
        <ele>122</ele>
        <time>2010-01-01T01:41:34.451Z</time>
      </trkpt>
      <trkpt lat="46.82987" lon="-1.00695">
        <ele>121.5</ele>
        <time>2010-01-01T01:41:38.405Z</time>
      </trkpt>
      <trkpt lat="46.83005" lon="-1.00668">
        <ele>122</ele>
        <time>2010-01-01T01:41:42.690Z</time>
      </trkpt>
      <trkpt lat="46.83026" lon="-1.00646">
        <ele>122</ele>
        <time>2010-01-01T01:41:46.982Z</time>
      </trkpt>
      <trkpt lat="46.83105" lon="-1.00574">
        <ele>120.9</ele>
        <time>2010-01-01T01:42:02.447Z</time>
      </trkpt>
      <trkpt lat="46.83142" lon="-1.00545">
        <ele>121.7</ele>
        <time>2010-01-01T01:42:09.421Z</time>
      </trkpt>
      <trkpt lat="46.83179" lon="-1.00524">
        <ele>122.9</ele>
        <time>2010-01-01T01:42:16.014Z</time>
      </trkpt>
      <trkpt lat="46.83225" lon="-1.00507">
        <ele>124.1</ele>
        <time>2010-01-01T01:42:23.895Z</time>
      </trkpt>
      <trkpt lat="46.83274" lon="-1.00479">
        <ele>125</ele>
        <time>2010-01-01T01:42:32.633Z</time>
      </trkpt>
      <trkpt lat="46.8329" lon="-1.00467">
        <ele>125</ele>
        <time>2010-01-01T01:42:35.619Z</time>
      </trkpt>
      <trkpt lat="46.83304" lon="-1.00452">
        <ele>125</ele>
        <time>2010-01-01T01:42:38.501Z</time>
      </trkpt>
      <trkpt lat="46.83312" lon="-1.00428">
        <ele>125.5</ele>
        <time>2010-01-01T01:42:41.533Z</time>
      </trkpt>
      <trkpt lat="46.83315" lon="-1.00397">
        <ele>125.9</ele>
        <time>2010-01-01T01:42:45.088Z</time>
      </trkpt>
      <trkpt lat="46.83314" lon="-1.00376">
        <ele>125.5</ele>
        <time>2010-01-01T01:42:47.478Z</time>
      </trkpt>
      <trkpt lat="46.83326" lon="-1.00377">
        <ele>125.6</ele>
        <time>2010-01-01T01:42:49.472Z</time>
      </trkpt>
      <trkpt lat="46.83437" lon="-1.0039">
        <ele>126</ele>
        <time>2010-01-01T01:43:07.945Z</time>
      </trkpt>
      <trkpt lat="46.83507" lon="-1.00398">
        <ele>126.2</ele>
        <time>2010-01-01T01:43:19.592Z</time>
      </trkpt>
      <trkpt lat="46.83613" lon="-1.00402">
        <ele>125</ele>
        <time>2010-01-01T01:43:37.181Z</time>
      </trkpt>
      <trkpt lat="46.83858" lon="-1.00421">
        <ele>124.7</ele>
        <time>2010-01-01T01:44:17.878Z</time>
      </trkpt>
      <trkpt lat="46.83872" lon="-1.00421">
        <ele>124.5</ele>
        <time>2010-01-01T01:44:20.200Z</time>
      </trkpt>
      <trkpt lat="46.84143" lon="-1.00443">
        <ele>118.9</ele>
        <time>2010-01-01T01:45:05.216Z</time>
        <extensions>
          <visugpx:TrkExtension xmlns:visugpx="https://www.visugpx.com/editgpx/">
            <visugpx:node>11</visugpx:node>
            </visugpx:TrkExtension>
        </extensions>
      </trkpt>
      <trkpt lat="46.84424" lon="-1.00465">
        <ele>114</ele>
        <time>2010-01-01T01:45:51.888Z</time>
      </trkpt>
      <trkpt lat="46.84427" lon="-1.00466">
        <ele>114</ele>
        <time>2010-01-01T01:45:52.398Z</time>
      </trkpt>
      <trkpt lat="46.84447" lon="-1.00467">
        <ele>114</ele>
        <time>2010-01-01T01:45:55.714Z</time>
      </trkpt>
      <trkpt lat="46.84474" lon="-1.0046">
        <ele>113.5</ele>
        <time>2010-01-01T01:46:00.257Z</time>
      </trkpt>
      <trkpt lat="46.84475" lon="-1.00458">
        <ele>113.4</ele>
        <time>2010-01-01T01:46:00.537Z</time>
      </trkpt>
      <trkpt lat="46.84478" lon="-1.00453">
        <ele>113.2</ele>
        <time>2010-01-01T01:46:01.288Z</time>
      </trkpt>
      <trkpt lat="46.84487" lon="-1.00449">
        <ele>113.1</ele>
        <time>2010-01-01T01:46:02.840Z</time>
      </trkpt>
      <trkpt lat="46.84494" lon="-1.00452">
        <ele>113.1</ele>
        <time>2010-01-01T01:46:04.043Z</time>
      </trkpt>
      <trkpt lat="46.84497" lon="-1.00454">
        <ele>113</ele>
        <time>2010-01-01T01:46:04.586Z</time>
      </trkpt>
      <trkpt lat="46.84501" lon="-1.00463">
        <ele>113</ele>
        <time>2010-01-01T01:46:05.795Z</time>
      </trkpt>
      <trkpt lat="46.84532" lon="-1.0047">
        <ele>112.9</ele>
        <time>2010-01-01T01:46:10.960Z</time>
      </trkpt>
      <trkpt lat="46.84571" lon="-1.00468">
        <ele>112.8</ele>
        <time>2010-01-01T01:46:17.385Z</time>
      </trkpt>
      <trkpt lat="46.84626" lon="-1.00457">
        <ele>113.5</ele>
        <time>2010-01-01T01:46:26.524Z</time>
      </trkpt>
      <trkpt lat="46.84649" lon="-1.0045">
        <ele>114.1</ele>
        <time>2010-01-01T01:46:30.391Z</time>
      </trkpt>
      <trkpt lat="46.84738" lon="-1.0042">
        <ele>115.6</ele>
        <time>2010-01-01T01:46:45.424Z</time>
      </trkpt>
      <trkpt lat="46.84749" lon="-1.00414">
        <ele>116</ele>
        <time>2010-01-01T01:46:47.356Z</time>
      </trkpt>
      <trkpt lat="46.8476" lon="-1.00408">
        <ele>116</ele>
        <time>2010-01-01T01:46:49.287Z</time>
      </trkpt>
      <trkpt lat="46.8476" lon="-1.00401">
        <ele>116</ele>
        <time>2010-01-01T01:46:50.074Z</time>
      </trkpt>
      <trkpt lat="46.84766" lon="-1.00393">
        <ele>116</ele>
        <time>2010-01-01T01:46:51.408Z</time>
      </trkpt>
      <trkpt lat="46.84773" lon="-1.00396">
        <ele>116</ele>
        <time>2010-01-01T01:46:52.606Z</time>
      </trkpt>
      <trkpt lat="46.84775" lon="-1.00403">
        <ele>116</ele>
        <time>2010-01-01T01:46:53.458Z</time>
      </trkpt>
      <trkpt lat="46.84782" lon="-1.00402">
        <ele>116</ele>
        <time>2010-01-01T01:46:54.612Z</time>
      </trkpt>
      <trkpt lat="46.84792" lon="-1.004">
        <ele>116</ele>
        <time>2010-01-01T01:46:56.268Z</time>
      </trkpt>
      <trkpt lat="46.84802" lon="-1.00397">
        <ele>116</ele>
        <time>2010-01-01T01:46:57.942Z</time>
      </trkpt>
      <trkpt lat="46.84829" lon="-1.00389">
        <ele>116</ele>
        <time>2010-01-01T01:47:02.459Z</time>
      </trkpt>
      <trkpt lat="46.84874" lon="-1.0038">
        <ele>115.2</ele>
        <time>2010-01-01T01:47:09.906Z</time>
      </trkpt>
      <trkpt lat="46.8488" lon="-1.00379">
        <ele>115.1</ele>
        <time>2010-01-01T01:47:10.896Z</time>
      </trkpt>
      <trkpt lat="46.84919" lon="-1.00379">
        <ele>114.9</ele>
        <time>2010-01-01T01:47:17.289Z</time>
      </trkpt>
      <trkpt lat="46.84957" lon="-1.0038">
        <ele>114.3</ele>
        <time>2010-01-01T01:47:23.519Z</time>
      </trkpt>
      <trkpt lat="46.84988" lon="-1.00386">
        <ele>113.5</ele>
        <time>2010-01-01T01:47:28.644Z</time>
      </trkpt>
      <trkpt lat="46.85026" lon="-1.00397">
        <ele>112.3</ele>
        <time>2010-01-01T01:47:34.992Z</time>
      </trkpt>
      <trkpt lat="46.85055" lon="-1.0041">
        <ele>111</ele>
        <time>2010-01-01T01:47:39.962Z</time>
      </trkpt>
      <trkpt lat="46.85077" lon="-1.00424">
        <ele>111.1</ele>
        <time>2010-01-01T01:47:43.893Z</time>
      </trkpt>
      <trkpt lat="46.85102" lon="-1.00439">
        <ele>110.5</ele>
        <time>2010-01-01T01:47:48.320Z</time>
      </trkpt>
      <trkpt lat="46.85131" lon="-1.0046">
        <ele>109.6</ele>
        <time>2010-01-01T01:47:53.621Z</time>
      </trkpt>
      <trkpt lat="46.85193" lon="-1.00506">
        <ele>108.1</ele>
        <time>2010-01-01T01:48:05.009Z</time>
      </trkpt>
      <trkpt lat="46.85196" lon="-1.00508">
        <ele>108</ele>
        <time>2010-01-01T01:48:05.549Z</time>
      </trkpt>
      <trkpt lat="46.85241" lon="-1.0054">
        <ele>108</ele>
        <time>2010-01-01T01:48:13.744Z</time>
      </trkpt>
      <trkpt lat="46.85261" lon="-1.00555">
        <ele>108.4</ele>
        <time>2010-01-01T01:48:17.425Z</time>
      </trkpt>
      <trkpt lat="46.85268" lon="-1.00561">
        <ele>108.6</ele>
        <time>2010-01-01T01:48:18.753Z</time>
      </trkpt>
      <trkpt lat="46.85286" lon="-1.00571">
        <ele>109</ele>
        <time>2010-01-01T01:48:21.904Z</time>
      </trkpt>
      <trkpt lat="46.85341" lon="-1.00587">
        <ele>108.1</ele>
        <time>2010-01-01T01:48:31.080Z</time>
      </trkpt>
      <trkpt lat="46.85372" lon="-1.006">
        <ele>107.8</ele>
        <time>2010-01-01T01:48:36.356Z</time>
      </trkpt>
      <trkpt lat="46.85421" lon="-1.00623">
        <ele>106.9</ele>
        <time>2010-01-01T01:48:44.775Z</time>
      </trkpt>
      <trkpt lat="46.85461" lon="-1.0064">
        <ele>107</ele>
        <time>2010-01-01T01:48:51.589Z</time>
      </trkpt>
      <trkpt lat="46.85483" lon="-1.00654">
        <ele>107</ele>
        <time>2010-01-01T01:48:55.513Z</time>
      </trkpt>
      <trkpt lat="46.85509" lon="-1.00673">
        <ele>107.3</ele>
        <time>2010-01-01T01:49:00.266Z</time>
      </trkpt>
      <trkpt lat="46.85539" lon="-1.00693">
        <ele>108</ele>
        <time>2010-01-01T01:49:05.657Z</time>
      </trkpt>
      <trkpt lat="46.85562" lon="-1.00711">
        <ele>108.7</ele>
        <time>2010-01-01T01:49:09.922Z</time>
      </trkpt>
      <trkpt lat="46.85635" lon="-1.00777">
        <ele>110</ele>
        <time>2010-01-01T01:49:23.953Z</time>
      </trkpt>
      <trkpt lat="46.8564" lon="-1.00782">
        <ele>110</ele>
        <time>2010-01-01T01:49:24.943Z</time>
      </trkpt>
      <trkpt lat="46.85677" lon="-1.00817">
        <ele>111</ele>
        <time>2010-01-01T01:49:32.145Z</time>
      </trkpt>
      <trkpt lat="46.8569" lon="-1.00829">
        <ele>111</ele>
        <time>2010-01-01T01:49:34.657Z</time>
      </trkpt>
      <trkpt lat="46.85714" lon="-1.00843">
        <ele>111.8</ele>
        <time>2010-01-01T01:49:38.879Z</time>
      </trkpt>
      <trkpt lat="46.85748" lon="-1.00862">
        <ele>112</ele>
        <time>2010-01-01T01:49:44.826Z</time>
      </trkpt>
      <trkpt lat="46.85764" lon="-1.00872">
        <ele>112</ele>
        <time>2010-01-01T01:49:47.668Z</time>
      </trkpt>
      <trkpt lat="46.8579" lon="-1.00886">
        <ele>112</ele>
        <time>2010-01-01T01:49:52.193Z</time>
      </trkpt>
      <trkpt lat="46.85817" lon="-1.00904">
        <ele>112</ele>
        <time>2010-01-01T01:49:57.039Z</time>
      </trkpt>
      <trkpt lat="46.85839" lon="-1.00917">
        <ele>112</ele>
        <time>2010-01-01T01:50:00.914Z</time>
      </trkpt>
      <trkpt lat="46.85841" lon="-1.00911">
        <ele>112</ele>
        <time>2010-01-01T01:50:01.659Z</time>
      </trkpt>
      <trkpt lat="46.85848" lon="-1.00904">
        <ele>112</ele>
        <time>2010-01-01T01:50:03.043Z</time>
      </trkpt>
      <trkpt lat="46.85853" lon="-1.00904">
        <ele>112</ele>
        <time>2010-01-01T01:50:03.859Z</time>
      </trkpt>
      <trkpt lat="46.8586" lon="-1.00907">
        <ele>112</ele>
        <time>2010-01-01T01:50:05.049Z</time>
      </trkpt>
      <trkpt lat="46.85864" lon="-1.00916">
        <ele>112.1</ele>
        <time>2010-01-01T01:50:06.246Z</time>
      </trkpt>
      <trkpt lat="46.85865" lon="-1.00926">
        <ele>112.1</ele>
        <time>2010-01-01T01:50:07.373Z</time>
      </trkpt>
      <trkpt lat="46.8587" lon="-1.00936">
        <ele>112.3</ele>
        <time>2010-01-01T01:50:08.754Z</time>
      </trkpt>
      <trkpt lat="46.85879" lon="-1.00945">
        <ele>112.6</ele>
        <time>2010-01-01T01:50:10.531Z</time>
      </trkpt>
      <trkpt lat="46.85951" lon="-1.00979">
        <ele>113</ele>
        <time>2010-01-01T01:50:22.862Z</time>
      </trkpt>
      <trkpt lat="46.85957" lon="-1.00964">
        <ele>112.8</ele>
        <time>2010-01-01T01:50:24.798Z</time>
      </trkpt>
      <trkpt lat="46.85985" lon="-1.00915">
        <ele>113</ele>
        <time>2010-01-01T01:50:31.912Z</time>
      </trkpt>
      <trkpt lat="46.86" lon="-1.00891">
        <ele>113</ele>
        <time>2010-01-01T01:50:35.534Z</time>
      </trkpt>
      <trkpt lat="46.86072" lon="-1.00793">
        <ele>114</ele>
        <time>2010-01-01T01:50:51.557Z</time>
      </trkpt>
      <trkpt lat="46.86095" lon="-1.00767">
        <ele>114.7</ele>
        <time>2010-01-01T01:50:56.292Z</time>
      </trkpt>
      <trkpt lat="46.86138" lon="-1.00731">
        <ele>115.3</ele>
        <time>2010-01-01T01:51:04.362Z</time>
        <extensions>
          <visugpx:TrkExtension xmlns:visugpx="https://www.visugpx.com/editgpx/">
            <visugpx:node>12</visugpx:node>
            </visugpx:TrkExtension>
        </extensions>
      </trkpt>
      <trkpt lat="46.86142" lon="-1.00728">
        <ele>115.3</ele>
        <time>2010-01-01T01:51:05.094Z</time>
      </trkpt>
      <trkpt lat="46.86183" lon="-1.00704">
        <ele>115.5</ele>
        <time>2010-01-01T01:51:12.285Z</time>
      </trkpt>
      <trkpt lat="46.86192" lon="-1.007">
        <ele>115.4</ele>
        <time>2010-01-01T01:51:13.816Z</time>
      </trkpt>
      <trkpt lat="46.86236" lon="-1.0068">
        <ele>116.2</ele>
        <time>2010-01-01T01:51:21.315Z</time>
      </trkpt>
      <trkpt lat="46.86272" lon="-1.00663">
        <ele>117.5</ele>
        <time>2010-01-01T01:51:27.471Z</time>
      </trkpt>
      <trkpt lat="46.86324" lon="-1.00626">
        <ele>118.2</ele>
        <time>2010-01-01T01:51:36.881Z</time>
      </trkpt>
      <trkpt lat="46.86326" lon="-1.00624">
        <ele>118.2</ele>
        <time>2010-01-01T01:51:37.275Z</time>
      </trkpt>
      <trkpt lat="46.86368" lon="-1.0058">
        <ele>119.2</ele>
        <time>2010-01-01T01:51:45.676Z</time>
      </trkpt>
      <trkpt lat="46.86374" lon="-1.00573">
        <ele>119.3</ele>
        <time>2010-01-01T01:51:46.924Z</time>
        <extensions>
          <visugpx:TrkExtension xmlns:visugpx="https://www.visugpx.com/editgpx/">
            <visugpx:node>13</visugpx:node>
            </visugpx:TrkExtension>
        </extensions>
      </trkpt>
      <trkpt lat="46.86382" lon="-1.00563">
        <ele>119.2</ele>
        <time>2010-01-01T01:51:48.635Z</time>
        <extensions>
          <visugpx:TrkExtension xmlns:visugpx="https://www.visugpx.com/editgpx/">
            <visugpx:node>14</visugpx:node>
            </visugpx:TrkExtension>
        </extensions>
      </trkpt>
    </trkseg>
  </trk>
</gpx>